BAW4E KLAX-EGLL
Flight info
| Callsign | BAW4E |
|---|---|
| Flight time | 10h 43m |
| Altitude | 29000 |
| Route | LADYJ4 OROSZ DCT SWIIM DCT PAIDD DCT LANDO DCT KEYRO DCT ROMOF DCT SWOOP DCT KIOTE DCT MITEL DCT FAANG DCT ZNAME DCT EBOBE DCT DRAGN DCT MVA DCT 40N17 DCT JOKNA DCT ZONOT/N0482F310 DCT KU69K DCT ALKAL DCT DERSO DCT KUIDA DCT BAXGO DCT CASBA DCT WAKIX DCT 47N113W DCT KEETA DCT HOMGO DCT ZULTU DCT VESDO DCT TUDOX DCT GADRU/N0498F330 DCT DUSUV DCT DUTEP DCT BONOB DCT EBDIG DCT DUVSI DCT ANTUP DCT DENLO DCT IMILU DCT UKTUX DCT XOREP DCT 59N104W DCT 60N03 DCT KETSU DCT 62N101W 63N099W 64N097W DCT 6595N DCT 66N093W DCT 6790N DCT 68N086W 69N081W/N0496F370 DCT 7075N DCT 71N070W/M085F370 DCT 7260N DCT 7250N/M087F390 DCT H7140 DCT 71N036W 70N031W DCT H6826 DCT 67N022W/M087F410 DCT CAINA DCT ROSTI DCT H6111/N0504F410 DCT 60N009W DCT INNUF DCT VP516 DCT CLYDE DCT FF05 DCT BITPA DCT VP446 DCT SKARV DCT SUBUK DCT VP353 DCT MCT DCT VEGAR DCT LUVUM DCT BBE25 |
| Aircraft | A388/J-SADE2E3FGHIJ3J4J5M1RWXY/LB1D1 |
Departure
| Time | 2026-04-26 08:39 |
|---|---|
| Airport | Los Angeles International Airport (KLAX) |
Arrival
| Time | 2026-04-26 19:23 |
|---|---|
| Airport | London Heathrow Airport (EGLL) |
| Time | Latitude | Longitude | Altitude | Speed | Heading |
|---|---|---|---|---|---|
| 2026-04-26 07:54 | 33.94399 | -118.41142 | 126 ft | 0 kts | 84° |
| 2026-04-26 08:33 | 33.94397 | -118.41164 | 124 ft | 0 kts | 76° |
| 2026-04-26 08:33 | 33.94387 | -118.41194 | 127 ft | 4 kts | 57° |
| 2026-04-26 08:34 | 33.94370 | -118.41217 | 120 ft | 4 kts | 31° |
| 2026-04-26 08:34 | 33.94345 | -118.41228 | 120 ft | 4 kts | 5° |
| 2026-04-26 08:34 | 33.94322 | -118.41228 | 124 ft | 1 kts | 353° |
| 2026-04-26 08:34 | 33.94321 | -118.41228 | 124 ft | 0 kts | 354° |
| 2026-04-26 08:37 | 33.94334 | -118.41230 | 129 ft | 6 kts | 354° |
| 2026-04-26 08:37 | 33.94381 | -118.41236 | 130 ft | 8 kts | 353° |
| 2026-04-26 08:37 | 33.94454 | -118.41248 | 127 ft | 16 kts | 352° |
| 2026-04-26 08:37 | 33.94580 | -118.41270 | 128 ft | 20 kts | 352° |
| 2026-04-26 08:38 | 33.94743 | -118.41293 | 126 ft | 29 kts | 353° |
| 2026-04-26 08:38 | 33.94886 | -118.41325 | 128 ft | 0 kts | 315° |
| 2026-04-26 08:38 | 33.94890 | -118.41425 | 126 ft | 37 kts | 264° |
| 2026-04-26 08:38 | 33.94820 | -118.42045 | 130 ft | 109 kts | 263° |
| 2026-04-26 08:39 | 33.94684 | -118.43162 | 128 ft | 156 kts | 258° |
| 2026-04-26 08:39 | 33.94485 | -118.44540 | 313 ft | 174 kts | 258° |
| 2026-04-26 08:39 | 33.94319 | -118.45961 | 842 ft | 167 kts | 263° |
| 2026-04-26 08:39 | 33.94266 | -118.47305 | 1552 ft | 157 kts | 269° |
| 2026-04-26 08:40 | 33.94273 | -118.48701 | 1808 ft | 180 kts | 269° |
| 2026-04-26 08:40 | 33.94252 | -118.50285 | 2217 ft | 200 kts | 268° |
| 2026-04-26 08:40 | 33.94146 | -118.52046 | 2663 ft | 220 kts | 264° |
| 2026-04-26 08:40 | 33.93991 | -118.53946 | 3216 ft | 237 kts | 265° |
| 2026-04-26 08:41 | 33.93827 | -118.55979 | 3836 ft | 246 kts | 265° |
| 2026-04-26 08:41 | 33.93665 | -118.58038 | 4673 ft | 248 kts | 265° |
| 2026-04-26 08:41 | 33.93504 | -118.60085 | 5434 ft | 249 kts | 264° |
| 2026-04-26 08:41 | 33.93588 | -118.62174 | 6145 ft | 254 kts | 285° |
| 2026-04-26 08:42 | 33.94471 | -118.64039 | 6880 ft | 262 kts | 310° |
| 2026-04-26 08:42 | 33.95969 | -118.65331 | 7562 ft | 269 kts | 324° |
| 2026-04-26 08:42 | 33.97626 | -118.66527 | 7905 ft | 287 kts | 325° |
| 2026-04-26 08:42 | 33.99550 | -118.67524 | 7970 ft | 317 kts | 343° |
| 2026-04-26 08:43 | 34.01857 | -118.67668 | 7972 ft | 347 kts | 360° |
| 2026-04-26 08:43 | 34.04318 | -118.67477 | 7969 ft | 369 kts | 0° |
| 2026-04-26 08:43 | 34.06957 | -118.67282 | 7968 ft | 390 kts | 0° |
| 2026-04-26 08:43 | 34.09727 | -118.67219 | 8186 ft | 401 kts | 356° |
| 2026-04-26 08:44 | 34.12475 | -118.67230 | 9260 ft | 388 kts | 356° |
| 2026-04-26 08:44 | 34.15131 | -118.67238 | 10447 ft | 374 kts | 356° |
| 2026-04-26 08:44 | 34.17677 | -118.67247 | 11632 ft | 358 kts | 355° |
| 2026-04-26 08:44 | 34.20133 | -118.67260 | 12590 ft | 351 kts | 355° |
| 2026-04-26 08:45 | 34.22591 | -118.67281 | 13162 ft | 354 kts | 355° |
| 2026-04-26 08:45 | 34.25065 | -118.67303 | 13727 ft | 357 kts | 355° |
| 2026-04-26 08:45 | 34.27558 | -118.67322 | 14241 ft | 360 kts | 355° |
| 2026-04-26 08:45 | 34.30069 | -118.67339 | 14750 ft | 362 kts | 355° |
| 2026-04-26 08:46 | 34.32597 | -118.67355 | 15259 ft | 364 kts | 355° |
| 2026-04-26 08:46 | 34.35144 | -118.67372 | 15756 ft | 367 kts | 355° |
| 2026-04-26 08:46 | 34.37701 | -118.67388 | 16274 ft | 370 kts | 355° |
| 2026-04-26 08:46 | 34.40285 | -118.67405 | 16836 ft | 372 kts | 355° |
| 2026-04-26 08:47 | 34.42863 | -118.67422 | 17367 ft | 375 kts | 355° |
| 2026-04-26 08:47 | 34.45485 | -118.67419 | 17912 ft | 378 kts | 356° |
| 2026-04-26 08:47 | 34.48135 | -118.67387 | 18446 ft | 381 kts | 356° |
| 2026-04-26 08:47 | 34.50798 | -118.67349 | 18947 ft | 384 kts | 355° |
| 2026-04-26 08:48 | 34.53480 | -118.67314 | 19459 ft | 386 kts | 355° |
| 2026-04-26 08:48 | 34.56178 | -118.67286 | 19956 ft | 390 kts | 355° |
| 2026-04-26 08:48 | 34.58849 | -118.67257 | 20469 ft | 392 kts | 355° |
| 2026-04-26 08:48 | 34.61609 | -118.67228 | 20998 ft | 395 kts | 355° |
| 2026-04-26 08:49 | 34.63474 | -118.67210 | 21338 ft | 396 kts | 355° |
| 2026-04-26 08:49 | 34.66216 | -118.67030 | 21781 ft | 404 kts | 2° |
| 2026-04-26 08:49 | 34.69004 | -118.66474 | 22274 ft | 408 kts | 4° |
| 2026-04-26 08:49 | 34.71810 | -118.65904 | 22690 ft | 412 kts | 4° |
| 2026-04-26 08:50 | 34.74664 | -118.65339 | 23162 ft | 415 kts | 3° |
| 2026-04-26 08:50 | 34.77516 | -118.64777 | 23625 ft | 417 kts | 3° |
| 2026-04-26 08:50 | 34.80398 | -118.64208 | 23981 ft | 420 kts | 3° |
| 2026-04-26 08:50 | 34.83305 | -118.63633 | 24365 ft | 423 kts | 3° |
| 2026-04-26 08:51 | 34.89158 | -118.62921 | 25088 ft | 425 kts | 359° |
| 2026-04-26 08:51 | 34.92134 | -118.62610 | 25395 ft | 428 kts | 359° |
| 2026-04-26 08:51 | 34.95067 | -118.62300 | 25654 ft | 431 kts | 359° |
| 2026-04-26 08:52 | 34.98057 | -118.61981 | 25951 ft | 433 kts | 359° |
| 2026-04-26 08:52 | 35.01068 | -118.61662 | 26251 ft | 435 kts | 359° |
| 2026-04-26 08:52 | 35.04099 | -118.61312 | 26549 ft | 438 kts | 0° |
| 2026-04-26 08:52 | 35.07138 | -118.60904 | 26862 ft | 441 kts | 0° |
| 2026-04-26 08:53 | 35.10199 | -118.60480 | 27277 ft | 442 kts | 1° |
| 2026-04-26 08:53 | 35.13262 | -118.60058 | 27576 ft | 445 kts | 1° |
| 2026-04-26 08:53 | 35.16348 | -118.59639 | 27873 ft | 447 kts | 1° |
| 2026-04-26 08:53 | 35.19458 | -118.59221 | 28198 ft | 450 kts | 1° |
| 2026-04-26 08:54 | 35.22594 | -118.58802 | 28517 ft | 452 kts | 1° |
| 2026-04-26 08:54 | 35.25686 | -118.58389 | 28827 ft | 455 kts | 1° |
| 2026-04-26 08:54 | 35.28838 | -118.58120 | 29127 ft | 453 kts | 355° |
| 2026-04-26 08:54 | 35.32004 | -118.58153 | 29451 ft | 455 kts | 355° |
| 2026-04-26 08:55 | 35.35185 | -118.58171 | 29785 ft | 458 kts | 355° |
| 2026-04-26 08:55 | 35.38385 | -118.58176 | 30090 ft | 461 kts | 355° |
| 2026-04-26 08:55 | 35.41590 | -118.58179 | 30364 ft | 463 kts | 355° |
| 2026-04-26 08:55 | 35.44828 | -118.58184 | 30623 ft | 466 kts | 355° |
| 2026-04-26 08:56 | 35.48079 | -118.58191 | 30878 ft | 468 kts | 355° |
| 2026-04-26 08:56 | 35.54724 | -118.58213 | 30952 ft | 486 kts | 356° |
| 2026-04-26 08:57 | 35.61578 | -118.58234 | 30933 ft | 504 kts | 356° |
| 2026-04-26 08:57 | 35.68710 | -118.58252 | 30934 ft | 522 kts | 356° |
| 2026-04-26 08:58 | 35.76105 | -118.58270 | 30943 ft | 539 kts | 356° |
| 2026-04-26 08:58 | 35.83724 | -118.58289 | 30933 ft | 553 kts | 356° |
| 2026-04-26 08:59 | 35.91461 | -118.58314 | 31732 ft | 547 kts | 356° |
| 2026-04-26 08:59 | 35.95231 | -118.58316 | 32709 ft | 536 kts | 356° |
| 2026-04-26 08:59 | 35.98942 | -118.58314 | 33376 ft | 530 kts | 356° |
| 2026-04-26 08:59 | 36.02618 | -118.58311 | 33930 ft | 527 kts | 356° |
| 2026-04-26 09:00 | 36.06233 | -118.58306 | 34267 ft | 527 kts | 356° |
| 2026-04-26 09:00 | 36.09918 | -118.58302 | 34585 ft | 527 kts | 356° |
| 2026-04-26 09:00 | 36.13585 | -118.58297 | 34888 ft | 528 kts | 356° |
| 2026-04-26 09:00 | 36.17255 | -118.58293 | 35179 ft | 528 kts | 356° |
| 2026-04-26 09:01 | 36.20929 | -118.58289 | 35519 ft | 527 kts | 356° |
| 2026-04-26 09:01 | 36.24588 | -118.58285 | 35868 ft | 526 kts | 356° |
| 2026-04-26 09:01 | 36.28256 | -118.58281 | 36144 ft | 527 kts | 356° |
| 2026-04-26 09:01 | 36.31934 | -118.58277 | 36426 ft | 527 kts | 356° |
| 2026-04-26 09:02 | 36.35597 | -118.58273 | 36694 ft | 528 kts | 355° |
| 2026-04-26 09:02 | 36.39280 | -118.58270 | 36976 ft | 528 kts | 355° |
| 2026-04-26 09:02 | 36.42954 | -118.58267 | 37289 ft | 528 kts | 356° |
| 2026-04-26 09:02 | 36.46583 | -118.58264 | 37524 ft | 529 kts | 356° |
| 2026-04-26 09:03 | 36.50271 | -118.58262 | 37779 ft | 529 kts | 355° |
| 2026-04-26 09:03 | 36.53955 | -118.58260 | 38052 ft | 530 kts | 355° |
| 2026-04-26 09:03 | 36.57646 | -118.58258 | 38306 ft | 530 kts | 355° |
| 2026-04-26 09:03 | 36.61334 | -118.58257 | 38570 ft | 530 kts | 355° |
| 2026-04-26 09:04 | 36.65029 | -118.58256 | 38787 ft | 531 kts | 355° |
| 2026-04-26 09:04 | 36.68723 | -118.58256 | 38966 ft | 531 kts | 355° |
| 2026-04-26 09:04 | 36.72406 | -118.58255 | 39179 ft | 530 kts | 355° |
| 2026-04-26 09:04 | 36.76125 | -118.58255 | 39374 ft | 530 kts | 355° |
| 2026-04-26 09:05 | 36.79805 | -118.58255 | 39569 ft | 530 kts | 355° |
| 2026-04-26 09:05 | 36.83453 | -118.58254 | 39766 ft | 530 kts | 355° |
| 2026-04-26 09:05 | 36.87149 | -118.58254 | 39982 ft | 530 kts | 356° |
| 2026-04-26 09:05 | 36.90840 | -118.58254 | 40163 ft | 530 kts | 356° |
| 2026-04-26 09:06 | 36.94523 | -118.58254 | 40340 ft | 530 kts | 356° |
| 2026-04-26 09:06 | 36.98222 | -118.58254 | 40533 ft | 530 kts | 355° |
| 2026-04-26 09:06 | 37.01909 | -118.58254 | 40703 ft | 530 kts | 355° |
| 2026-04-26 09:06 | 37.05611 | -118.58254 | 40867 ft | 530 kts | 355° |
| 2026-04-26 09:07 | 37.09300 | -118.58253 | 41060 ft | 530 kts | 355° |
| 2026-04-26 09:07 | 37.12995 | -118.58253 | 41213 ft | 530 kts | 355° |
| 2026-04-26 09:07 | 37.16643 | -118.58253 | 41376 ft | 530 kts | 355° |
| 2026-04-26 09:07 | 37.20334 | -118.58253 | 41490 ft | 531 kts | 356° |
| 2026-04-26 09:08 | 37.24029 | -118.58253 | 41619 ft | 532 kts | 355° |
| 2026-04-26 09:08 | 37.27728 | -118.58253 | 41751 ft | 532 kts | 356° |
| 2026-04-26 09:08 | 37.31447 | -118.58253 | 41864 ft | 533 kts | 356° |
| 2026-04-26 09:08 | 37.35162 | -118.58252 | 41991 ft | 534 kts | 356° |
| 2026-04-26 09:09 | 37.38876 | -118.58252 | 42101 ft | 535 kts | 356° |
| 2026-04-26 09:09 | 37.42600 | -118.58249 | 42373 ft | 532 kts | 356° |
| 2026-04-26 09:09 | 37.46300 | -118.58246 | 42573 ft | 531 kts | 356° |
| 2026-04-26 09:09 | 37.49991 | -118.58242 | 42756 ft | 530 kts | 356° |
| 2026-04-26 09:10 | 37.53677 | -118.58238 | 42937 ft | 529 kts | 356° |
| 2026-04-26 09:10 | 37.57350 | -118.58234 | 43068 ft | 529 kts | 356° |
| 2026-04-26 09:10 | 37.61042 | -118.58230 | 43189 ft | 529 kts | 356° |
| 2026-04-26 09:10 | 37.64731 | -118.58225 | 43304 ft | 529 kts | 356° |
| 2026-04-26 09:11 | 37.68413 | -118.58221 | 43418 ft | 529 kts | 356° |
| 2026-04-26 09:11 | 37.72053 | -118.58217 | 43573 ft | 529 kts | 356° |
| 2026-04-26 09:11 | 37.75727 | -118.58213 | 43696 ft | 529 kts | 356° |
| 2026-04-26 09:12 | 37.83096 | -118.58203 | 43862 ft | 529 kts | 356° |
| 2026-04-26 09:12 | 37.90458 | -118.58194 | 44037 ft | 528 kts | 356° |
| 2026-04-26 09:13 | 37.97819 | -118.58186 | 44218 ft | 529 kts | 356° |
| 2026-04-26 09:13 | 38.05186 | -118.58177 | 44387 ft | 529 kts | 356° |
| 2026-04-26 09:14 | 38.12553 | -118.58169 | 44565 ft | 529 kts | 356° |
| 2026-04-26 09:14 | 38.19866 | -118.58160 | 44701 ft | 529 kts | 356° |
| 2026-04-26 09:15 | 38.27222 | -118.58152 | 44822 ft | 529 kts | 356° |
| 2026-04-26 09:15 | 38.34589 | -118.58144 | 44944 ft | 528 kts | 356° |
| 2026-04-26 09:16 | 38.41956 | -118.58135 | 45068 ft | 528 kts | 356° |
| 2026-04-26 09:16 | 38.49258 | -118.58127 | 45171 ft | 528 kts | 356° |
| 2026-04-26 09:17 | 38.56627 | -118.58118 | 45298 ft | 528 kts | 356° |
| 2026-04-26 09:17 | 38.63970 | -118.58109 | 45384 ft | 528 kts | 356° |
| 2026-04-26 09:18 | 38.71274 | -118.58100 | 45412 ft | 528 kts | 356° |
| 2026-04-26 09:18 | 38.78631 | -118.58092 | 45497 ft | 528 kts | 356° |
| 2026-04-26 09:19 | 38.85982 | -118.58083 | 45560 ft | 528 kts | 356° |
| 2026-04-26 09:19 | 38.93334 | -118.58075 | 45608 ft | 528 kts | 356° |
| 2026-04-26 09:20 | 39.00686 | -118.58068 | 45674 ft | 528 kts | 357° |
| 2026-04-26 09:20 | 39.07994 | -118.58061 | 45705 ft | 528 kts | 357° |
| 2026-04-26 09:21 | 39.15350 | -118.58056 | 45740 ft | 529 kts | 357° |
| 2026-04-26 09:21 | 39.22724 | -118.58050 | 45785 ft | 530 kts | 357° |
| 2026-04-26 09:22 | 39.30102 | -118.58045 | 45805 ft | 530 kts | 357° |
| 2026-04-26 09:22 | 39.37496 | -118.58041 | 45831 ft | 531 kts | 357° |
| 2026-04-26 09:23 | 39.44904 | -118.58039 | 45902 ft | 532 kts | 357° |
| 2026-04-26 09:23 | 39.52260 | -118.58037 | 45904 ft | 533 kts | 357° |
| 2026-04-26 09:24 | 39.59669 | -118.58035 | 46118 ft | 529 kts | 357° |
| 2026-04-26 09:24 | 39.67024 | -118.58029 | 46210 ft | 528 kts | 357° |
| 2026-04-26 09:25 | 39.74386 | -118.58023 | 46228 ft | 527 kts | 357° |
| 2026-04-26 09:25 | 39.81722 | -118.58017 | 46251 ft | 528 kts | 357° |
| 2026-04-26 09:26 | 39.89062 | -118.58012 | 46279 ft | 528 kts | 357° |
| 2026-04-26 09:26 | 39.96379 | -118.58008 | 46305 ft | 528 kts | 357° |
| 2026-04-26 09:27 | 40.03726 | -118.58005 | 46305 ft | 528 kts | 357° |
| 2026-04-26 09:27 | 40.11095 | -118.58002 | 46233 ft | 529 kts | 357° |
| 2026-04-26 09:28 | 40.18462 | -118.58002 | 46240 ft | 530 kts | 357° |
| 2026-04-26 09:28 | 40.25852 | -118.58002 | 46239 ft | 531 kts | 357° |
| 2026-04-26 09:29 | 40.33194 | -118.58005 | 46237 ft | 532 kts | 357° |
| 2026-04-26 09:29 | 40.40609 | -118.58009 | 46273 ft | 531 kts | 357° |
| 2026-04-26 09:29 | 40.44304 | -118.58010 | 46426 ft | 529 kts | 357° |
| 2026-04-26 09:30 | 40.47982 | -118.58010 | 46498 ft | 527 kts | 357° |
| 2026-04-26 09:30 | 40.55327 | -118.58009 | 46541 ft | 527 kts | 357° |
| 2026-04-26 09:31 | 40.62652 | -118.58007 | 46555 ft | 526 kts | 357° |
| 2026-04-26 09:31 | 40.69991 | -118.58004 | 46565 ft | 526 kts | 357° |
| 2026-04-26 09:32 | 40.77264 | -118.57999 | 46583 ft | 526 kts | 357° |
| 2026-04-26 09:32 | 40.84582 | -118.57994 | 46576 ft | 526 kts | 357° |
| 2026-04-26 09:33 | 40.91928 | -118.57987 | 46576 ft | 526 kts | 357° |
| 2026-04-26 09:33 | 40.99250 | -118.57981 | 46569 ft | 527 kts | 357° |
| 2026-04-26 09:34 | 41.06546 | -118.57974 | 46554 ft | 527 kts | 357° |
| 2026-04-26 09:34 | 41.13895 | -118.57967 | 46546 ft | 528 kts | 357° |
| 2026-04-26 09:35 | 41.21255 | -118.57959 | 46517 ft | 529 kts | 357° |
| 2026-04-26 09:35 | 41.28614 | -118.57952 | 46516 ft | 530 kts | 357° |
| 2026-04-26 09:36 | 41.36003 | -118.57943 | 46556 ft | 529 kts | 356° |
| 2026-04-26 09:36 | 41.39636 | -118.57938 | 46704 ft | 526 kts | 356° |
| 2026-04-26 09:36 | 41.43286 | -118.57931 | 46763 ft | 525 kts | 356° |
| 2026-04-26 09:37 | 41.50605 | -118.57917 | 46799 ft | 524 kts | 357° |
| 2026-04-26 09:37 | 41.56667 | -118.57905 | 46805 ft | 524 kts | 356° |
| 2026-04-26 09:38 | 41.63960 | -118.57891 | 46787 ft | 523 kts | 356° |
| 2026-04-26 09:38 | 41.71242 | -118.57877 | 46797 ft | 523 kts | 357° |
| 2026-04-26 09:39 | 41.78525 | -118.57863 | 46783 ft | 523 kts | 357° |
| 2026-04-26 09:39 | 41.85806 | -118.57849 | 46771 ft | 523 kts | 357° |
| 2026-04-26 09:40 | 41.93099 | -118.57837 | 46761 ft | 524 kts | 357° |
| 2026-04-26 09:40 | 42.00388 | -118.57826 | 46741 ft | 524 kts | 357° |
| 2026-04-26 09:41 | 42.07633 | -118.57815 | 46724 ft | 524 kts | 357° |
| 2026-04-26 09:41 | 42.14935 | -118.57805 | 46697 ft | 525 kts | 357° |
| 2026-04-26 09:42 | 42.22253 | -118.57797 | 46670 ft | 526 kts | 357° |
| 2026-04-26 09:42 | 42.29583 | -118.57791 | 46656 ft | 527 kts | 357° |
| 2026-04-26 09:43 | 42.36925 | -118.57786 | 46622 ft | 528 kts | 357° |
| 2026-04-26 09:43 | 42.44266 | -118.57782 | 46656 ft | 527 kts | 357° |
| 2026-04-26 09:43 | 42.47894 | -118.57779 | 46797 ft | 525 kts | 357° |
| 2026-04-26 09:44 | 42.51556 | -118.57776 | 46861 ft | 523 kts | 357° |
| 2026-04-26 09:44 | 42.58837 | -118.57768 | 46882 ft | 523 kts | 357° |
| 2026-04-26 09:45 | 42.66105 | -118.57761 | 46903 ft | 522 kts | 358° |
| 2026-04-26 09:45 | 42.73373 | -118.57753 | 46911 ft | 522 kts | 358° |
| 2026-04-26 09:46 | 42.80636 | -118.57744 | 46905 ft | 521 kts | 358° |
| 2026-04-26 09:46 | 42.87889 | -118.57735 | 46908 ft | 521 kts | 358° |
| 2026-04-26 09:47 | 42.95104 | -118.57724 | 46894 ft | 521 kts | 358° |
| 2026-04-26 09:47 | 43.02362 | -118.57713 | 46876 ft | 522 kts | 358° |
| 2026-04-26 09:48 | 43.09623 | -118.57701 | 46853 ft | 522 kts | 358° |
| 2026-04-26 09:48 | 43.16901 | -118.57688 | 46824 ft | 522 kts | 358° |
| 2026-04-26 09:49 | 43.24168 | -118.57675 | 46798 ft | 523 kts | 358° |
| 2026-04-26 09:49 | 43.31469 | -118.57661 | 46778 ft | 523 kts | 358° |
| 2026-04-26 09:50 | 43.38702 | -118.57647 | 46756 ft | 524 kts | 358° |
| 2026-04-26 09:50 | 43.46009 | -118.57633 | 46729 ft | 525 kts | 358° |
| 2026-04-26 09:51 | 43.53324 | -118.57619 | 46713 ft | 526 kts | 358° |
| 2026-04-26 09:51 | 43.60663 | -118.57606 | 46686 ft | 527 kts | 358° |
| 2026-04-26 09:52 | 43.67987 | -118.57591 | 46872 ft | 524 kts | 358° |
| 2026-04-26 09:52 | 43.75257 | -118.57575 | 46988 ft | 521 kts | 358° |
| 2026-04-26 09:52 | 43.78846 | -118.57567 | 47009 ft | 521 kts | 358° |
| 2026-04-26 09:53 | 43.86083 | -118.57550 | 47032 ft | 520 kts | 358° |
| 2026-04-26 09:53 | 43.93320 | -118.57535 | 47069 ft | 518 kts | 358° |
| 2026-04-26 09:54 | 44.00530 | -118.57520 | 47072 ft | 518 kts | 358° |
| 2026-04-26 09:54 | 44.07728 | -118.57507 | 47071 ft | 517 kts | 358° |
| 2026-04-26 09:55 | 44.14929 | -118.57495 | 47076 ft | 516 kts | 358° |
| 2026-04-26 09:55 | 44.22078 | -118.57483 | 47075 ft | 516 kts | 358° |
| 2026-04-26 09:56 | 44.29257 | -118.57472 | 47050 ft | 515 kts | 358° |
| 2026-04-26 09:56 | 44.36422 | -118.57463 | 47049 ft | 515 kts | 359° |
| 2026-04-26 09:57 | 44.43601 | -118.57454 | 47025 ft | 515 kts | 359° |
| 2026-04-26 09:57 | 44.50732 | -118.57445 | 46989 ft | 515 kts | 359° |
| 2026-04-26 09:58 | 44.57930 | -118.57438 | 46965 ft | 516 kts | 359° |
| 2026-04-26 09:58 | 44.65118 | -118.57432 | 46928 ft | 516 kts | 359° |
| 2026-04-26 09:59 | 44.72302 | -118.57427 | 46900 ft | 517 kts | 359° |
| 2026-04-26 09:59 | 44.79504 | -118.57423 | 46862 ft | 517 kts | 359° |
| 2026-04-26 10:00 | 44.86666 | -118.57420 | 46826 ft | 518 kts | 359° |
| 2026-04-26 10:00 | 44.93893 | -118.57417 | 46786 ft | 519 kts | 359° |
| 2026-04-26 10:01 | 45.01134 | -118.57416 | 46767 ft | 521 kts | 359° |
| 2026-04-26 10:01 | 45.08395 | -118.57416 | 46731 ft | 522 kts | 359° |
| 2026-04-26 10:02 | 45.15642 | -118.57416 | 46911 ft | 518 kts | 359° |
| 2026-04-26 10:02 | 45.22791 | -118.57415 | 47020 ft | 516 kts | 359° |
| 2026-04-26 10:03 | 45.29988 | -118.57413 | 47035 ft | 516 kts | 359° |
| 2026-04-26 10:03 | 45.37169 | -118.57412 | 47039 ft | 515 kts | 359° |
| 2026-04-26 10:04 | 45.44343 | -118.57411 | 47020 ft | 515 kts | 359° |
| 2026-04-26 10:04 | 45.51512 | -118.57410 | 46996 ft | 515 kts | 359° |
| 2026-04-26 10:05 | 45.58646 | -118.57409 | 46969 ft | 515 kts | 359° |
| 2026-04-26 10:05 | 45.65819 | -118.57407 | 46947 ft | 515 kts | 359° |
| 2026-04-26 10:06 | 45.73022 | -118.57405 | 46952 ft | 516 kts | 359° |
| 2026-04-26 10:06 | 45.80150 | -118.57405 | 46905 ft | 516 kts | 359° |
| 2026-04-26 10:07 | 45.87334 | -118.57403 | 46870 ft | 517 kts | 359° |
| 2026-04-26 10:07 | 45.94531 | -118.57401 | 46842 ft | 517 kts | 359° |
| 2026-04-26 10:08 | 46.01752 | -118.57399 | 46800 ft | 518 kts | 359° |
| 2026-04-26 10:08 | 46.08977 | -118.57400 | 46776 ft | 519 kts | 359° |
| 2026-04-26 10:09 | 46.16188 | -118.57401 | 46974 ft | 515 kts | 359° |
| 2026-04-26 10:09 | 46.23343 | -118.57402 | 47072 ft | 514 kts | 359° |
| 2026-04-26 10:10 | 46.30462 | -118.57402 | 47086 ft | 513 kts | 359° |
| 2026-04-26 10:10 | 46.37603 | -118.57404 | 47107 ft | 513 kts | 359° |
| 2026-04-26 10:11 | 46.44747 | -118.57405 | 47105 ft | 513 kts | 359° |
| 2026-04-26 10:11 | 46.51880 | -118.57407 | 47106 ft | 512 kts | 359° |
| 2026-04-26 10:12 | 46.59011 | -118.57410 | 47098 ft | 513 kts | 359° |
| 2026-04-26 10:12 | 46.66154 | -118.57412 | 47096 ft | 513 kts | 359° |
| 2026-04-26 10:13 | 46.73253 | -118.57416 | 47063 ft | 513 kts | 359° |
| 2026-04-26 10:13 | 46.80398 | -118.57420 | 47035 ft | 513 kts | 359° |
| 2026-04-26 10:14 | 46.87552 | -118.57425 | 47001 ft | 514 kts | 359° |
| 2026-04-26 10:14 | 46.94711 | -118.57431 | 46986 ft | 514 kts | 359° |
| 2026-04-26 10:15 | 47.01834 | -118.57439 | 46967 ft | 515 kts | 359° |
| 2026-04-26 10:15 | 47.09007 | -118.57449 | 46923 ft | 516 kts | 359° |
| 2026-04-26 10:16 | 47.16208 | -118.57459 | 46901 ft | 517 kts | 359° |
| 2026-04-26 10:16 | 47.23419 | -118.57470 | 46867 ft | 518 kts | 360° |
| 2026-04-26 10:17 | 47.30585 | -118.57484 | 46975 ft | 516 kts | 360° |
| 2026-04-26 10:17 | 47.34171 | -118.57490 | 47093 ft | 514 kts | 360° |
| 2026-04-26 10:17 | 47.37745 | -118.57497 | 47142 ft | 513 kts | 360° |
| 2026-04-26 10:18 | 47.44868 | -118.57509 | 47167 ft | 512 kts | 360° |
| 2026-04-26 10:18 | 47.51999 | -118.57522 | 47192 ft | 511 kts | 360° |
| 2026-04-26 10:19 | 47.59096 | -118.57535 | 47205 ft | 510 kts | 360° |
| 2026-04-26 10:19 | 47.66192 | -118.57549 | 47218 ft | 509 kts | 360° |
| 2026-04-26 10:20 | 47.72072 | -118.57561 | 47207 ft | 509 kts | 360° |
| 2026-04-26 10:20 | 47.80348 | -118.57578 | 47183 ft | 508 kts | 360° |
| 2026-04-26 10:21 | 47.87380 | -118.57593 | 47172 ft | 508 kts | 360° |
| 2026-04-26 10:21 | 47.94438 | -118.57608 | 47127 ft | 507 kts | 360° |
| 2026-04-26 10:22 | 48.01505 | -118.57624 | 47104 ft | 507 kts | 359° |
| 2026-04-26 10:22 | 48.08590 | -118.57640 | 47076 ft | 507 kts | 359° |
| 2026-04-26 10:23 | 48.15661 | -118.57658 | 47052 ft | 508 kts | 360° |
| 2026-04-26 10:23 | 48.22691 | -118.57676 | 47010 ft | 508 kts | 360° |
| 2026-04-26 10:24 | 48.29769 | -118.57696 | 46979 ft | 508 kts | 360° |
| 2026-04-26 10:24 | 48.36852 | -118.57716 | 46949 ft | 509 kts | 360° |
| 2026-04-26 10:25 | 48.43946 | -118.57736 | 46917 ft | 510 kts | 360° |
| 2026-04-26 10:25 | 48.51048 | -118.57757 | 46880 ft | 511 kts | 360° |
| 2026-04-26 10:26 | 48.56967 | -118.57774 | 46852 ft | 512 kts | 360° |
| 2026-04-26 10:26 | 48.64090 | -118.57795 | 46827 ft | 513 kts | 360° |
| 2026-04-26 10:27 | 48.72398 | -118.57821 | 46800 ft | 514 kts | 360° |
| 2026-04-26 10:27 | 48.78415 | -118.57840 | 46783 ft | 516 kts | 360° |
| 2026-04-26 10:28 | 48.85535 | -118.57862 | 46958 ft | 513 kts | 360° |
| 2026-04-26 10:28 | 48.92650 | -118.57884 | 47106 ft | 510 kts | 360° |
| 2026-04-26 10:29 | 48.99743 | -118.57907 | 47174 ft | 508 kts | 360° |
| 2026-04-26 10:29 | 49.06802 | -118.57929 | 47247 ft | 507 kts | 360° |
| 2026-04-26 10:30 | 49.13839 | -118.57952 | 47300 ft | 505 kts | 0° |
| 2026-04-26 10:30 | 49.20859 | -118.57975 | 47322 ft | 504 kts | 0° |
| 2026-04-26 10:31 | 49.27874 | -118.57998 | 47338 ft | 502 kts | 360° |
| 2026-04-26 10:31 | 49.34857 | -118.58021 | 47346 ft | 501 kts | 360° |
| 2026-04-26 10:32 | 49.41814 | -118.58044 | 47321 ft | 500 kts | 0° |
| 2026-04-26 10:32 | 49.48768 | -118.58067 | 47312 ft | 499 kts | 0° |
| 2026-04-26 10:33 | 49.55707 | -118.58091 | 47273 ft | 498 kts | 0° |
| 2026-04-26 10:33 | 49.62597 | -118.58115 | 47239 ft | 497 kts | 0° |
| 2026-04-26 10:34 | 49.69514 | -118.58140 | 47217 ft | 497 kts | 0° |
| 2026-04-26 10:34 | 49.76432 | -118.58165 | 47161 ft | 497 kts | 0° |
| 2026-04-26 10:35 | 49.83361 | -118.58189 | 47120 ft | 497 kts | 0° |
| 2026-04-26 10:35 | 49.90274 | -118.58211 | 47065 ft | 497 kts | 0° |
| 2026-04-26 10:36 | 49.97190 | -118.58232 | 47019 ft | 497 kts | 0° |
| 2026-04-26 10:36 | 50.04123 | -118.58251 | 46961 ft | 497 kts | 0° |
| 2026-04-26 10:37 | 50.11005 | -118.58270 | 46911 ft | 498 kts | 0° |
| 2026-04-26 10:37 | 50.17937 | -118.58289 | 46852 ft | 499 kts | 0° |
| 2026-04-26 10:38 | 50.24882 | -118.58308 | 46796 ft | 500 kts | 0° |
| 2026-04-26 10:38 | 50.31845 | -118.58326 | 46757 ft | 501 kts | 0° |
| 2026-04-26 10:39 | 50.38835 | -118.58343 | 46697 ft | 502 kts | 0° |
| 2026-04-26 10:39 | 50.45827 | -118.58361 | 46649 ft | 503 kts | 0° |
| 2026-04-26 10:40 | 50.52799 | -118.58378 | 46587 ft | 504 kts | 0° |
| 2026-04-26 10:40 | 50.59842 | -118.58395 | 46558 ft | 506 kts | 0° |
| 2026-04-26 10:41 | 50.66893 | -118.58412 | 46523 ft | 507 kts | 0° |
| 2026-04-26 10:41 | 50.73983 | -118.58428 | 46478 ft | 509 kts | 0° |
| 2026-04-26 10:42 | 50.81038 | -118.58443 | 46443 ft | 511 kts | 0° |
| 2026-04-26 10:42 | 50.88181 | -118.58459 | 46408 ft | 513 kts | 0° |
| 2026-04-26 10:43 | 50.95322 | -118.58473 | 46517 ft | 512 kts | 0° |
| 2026-04-26 10:43 | 50.98886 | -118.58481 | 46637 ft | 510 kts | 0° |
| 2026-04-26 10:43 | 51.02434 | -118.58488 | 46698 ft | 509 kts | 0° |
| 2026-04-26 10:44 | 51.09516 | -118.58503 | 46768 ft | 509 kts | 0° |
| 2026-04-26 10:44 | 51.16608 | -118.58518 | 46822 ft | 509 kts | 0° |
| 2026-04-26 10:45 | 51.23675 | -118.58534 | 46979 ft | 505 kts | 0° |
| 2026-04-26 10:45 | 51.27185 | -118.58541 | 47209 ft | 501 kts | 0° |
| 2026-04-26 10:45 | 51.30609 | -118.58546 | 47395 ft | 497 kts | 0° |
| 2026-04-26 10:46 | 51.34061 | -118.58549 | 47558 ft | 493 kts | 0° |
| 2026-04-26 10:46 | 51.37484 | -118.58552 | 47705 ft | 489 kts | 0° |
| 2026-04-26 10:46 | 51.40874 | -118.58552 | 47840 ft | 485 kts | 0° |
| 2026-04-26 10:46 | 51.44241 | -118.58552 | 47954 ft | 481 kts | 0° |
| 2026-04-26 10:47 | 51.50880 | -118.58547 | 48136 ft | 473 kts | 0° |
| 2026-04-26 10:47 | 51.57435 | -118.58539 | 48197 ft | 467 kts | 0° |
| 2026-04-26 10:48 | 51.63853 | -118.58523 | 48103 ft | 462 kts | 0° |
| 2026-04-26 10:48 | 51.67069 | -118.58513 | 47994 ft | 462 kts | 0° |
| 2026-04-26 10:48 | 51.70295 | -118.58501 | 47821 ft | 462 kts | 0° |
| 2026-04-26 10:49 | 51.73514 | -118.58487 | 47612 ft | 463 kts | 0° |
| 2026-04-26 10:49 | 51.76749 | -118.58470 | 47363 ft | 466 kts | 0° |
| 2026-04-26 10:49 | 51.80015 | -118.58452 | 47080 ft | 470 kts | 0° |
| 2026-04-26 10:49 | 51.83305 | -118.58431 | 46791 ft | 476 kts | 0° |
| 2026-04-26 10:50 | 51.86638 | -118.58407 | 46499 ft | 481 kts | 0° |
| 2026-04-26 10:50 | 51.88855 | -118.58390 | 46300 ft | 485 kts | 0° |
| 2026-04-26 10:50 | 51.93422 | -118.58352 | 45908 ft | 494 kts | 0° |
| 2026-04-26 10:50 | 51.96878 | -118.58321 | 45625 ft | 501 kts | 0° |
| 2026-04-26 10:51 | 52.00383 | -118.58286 | 45343 ft | 508 kts | 0° |
| 2026-04-26 10:51 | 52.07457 | -118.58214 | 45330 ft | 511 kts | 0° |
| 2026-04-26 10:51 | 52.11008 | -118.58177 | 45457 ft | 510 kts | 0° |
| 2026-04-26 10:52 | 52.14555 | -118.58141 | 45570 ft | 509 kts | 0° |
| 2026-04-26 10:52 | 52.21649 | -118.58067 | 45683 ft | 509 kts | 0° |
| 2026-04-26 10:53 | 52.28747 | -118.57991 | 45792 ft | 510 kts | 0° |
| 2026-04-26 10:53 | 52.35817 | -118.57913 | 45872 ft | 511 kts | 0° |
| 2026-04-26 10:54 | 52.46497 | -118.57790 | 46002 ft | 512 kts | 0° |
| 2026-04-26 10:54 | 52.53631 | -118.57704 | 46090 ft | 513 kts | 1° |
| 2026-04-26 10:55 | 52.60781 | -118.57618 | 46216 ft | 512 kts | 1° |
| 2026-04-26 10:55 | 52.64301 | -118.57575 | 46400 ft | 510 kts | 1° |
| 2026-04-26 10:55 | 52.66697 | -118.57546 | 46479 ft | 509 kts | 1° |
| 2026-04-26 10:56 | 52.74916 | -118.57447 | 46644 ft | 507 kts | 1° |
| 2026-04-26 10:56 | 52.81968 | -118.57362 | 46790 ft | 506 kts | 1° |
| 2026-04-26 10:57 | 52.89002 | -118.57278 | 46917 ft | 504 kts | 1° |
| 2026-04-26 10:57 | 52.96035 | -118.57194 | 47016 ft | 503 kts | 1° |
| 2026-04-26 10:58 | 53.03024 | -118.57110 | 47114 ft | 502 kts | 1° |
| 2026-04-26 10:58 | 53.09962 | -118.57027 | 47167 ft | 501 kts | 0° |
| 2026-04-26 10:59 | 53.16934 | -118.56943 | 47223 ft | 500 kts | 0° |
| 2026-04-26 10:59 | 53.23898 | -118.56861 | 47268 ft | 499 kts | 0° |
| 2026-04-26 11:00 | 53.30850 | -118.56780 | 47305 ft | 499 kts | 1° |
| 2026-04-26 11:00 | 53.37794 | -118.56701 | 47323 ft | 498 kts | 0° |
| 2026-04-26 11:01 | 53.44729 | -118.56622 | 47336 ft | 498 kts | 0° |
| 2026-04-26 11:01 | 53.51614 | -118.56546 | 47347 ft | 497 kts | 0° |
| 2026-04-26 11:02 | 53.58533 | -118.56472 | 47359 ft | 497 kts | 1° |
| 2026-04-26 11:02 | 53.65442 | -118.56400 | 47330 ft | 497 kts | 1° |
| 2026-04-26 11:03 | 53.72363 | -118.56329 | 47318 ft | 496 kts | 1° |
| 2026-04-26 11:03 | 53.79276 | -118.56259 | 47291 ft | 496 kts | 1° |
| 2026-04-26 11:04 | 53.86148 | -118.56190 | 47264 ft | 497 kts | 1° |
| 2026-04-26 11:04 | 53.93070 | -118.56121 | 47222 ft | 497 kts | 1° |
| 2026-04-26 11:05 | 53.99985 | -118.56053 | 47184 ft | 497 kts | 1° |
| 2026-04-26 11:05 | 54.06927 | -118.55986 | 47167 ft | 498 kts | 1° |
| 2026-04-26 11:06 | 54.12696 | -118.55931 | 47138 ft | 498 kts | 1° |
| 2026-04-26 11:06 | 54.20772 | -118.55854 | 47085 ft | 499 kts | 1° |
| 2026-04-26 11:07 | 54.27736 | -118.55788 | 47054 ft | 500 kts | 1° |
| 2026-04-26 11:07 | 54.34697 | -118.55723 | 47015 ft | 501 kts | 1° |
| 2026-04-26 11:08 | 54.41695 | -118.55658 | 46986 ft | 502 kts | 1° |
| 2026-04-26 11:08 | 54.48702 | -118.55593 | 46956 ft | 504 kts | 1° |
| 2026-04-26 11:09 | 54.55689 | -118.55530 | 46907 ft | 505 kts | 1° |
| 2026-04-26 11:09 | 54.62723 | -118.55468 | 46897 ft | 507 kts | 1° |
| 2026-04-26 11:10 | 54.69789 | -118.55406 | 46879 ft | 508 kts | 1° |
| 2026-04-26 11:10 | 54.76883 | -118.55343 | 46865 ft | 510 kts | 1° |
| 2026-04-26 11:11 | 54.83999 | -118.55282 | 46825 ft | 512 kts | 1° |
| 2026-04-26 11:11 | 54.91092 | -118.55220 | 46935 ft | 511 kts | 1° |
| 2026-04-26 11:12 | 54.94644 | -118.55190 | 47098 ft | 509 kts | 1° |
| 2026-04-26 11:12 | 54.98190 | -118.55159 | 47174 ft | 508 kts | 1° |
| 2026-04-26 11:12 | 55.04063 | -118.55110 | 47208 ft | 507 kts | 1° |
| 2026-04-26 11:13 | 55.11115 | -118.55049 | 47289 ft | 506 kts | 1° |
| 2026-04-26 11:13 | 55.18163 | -118.54988 | 47401 ft | 504 kts | 1° |
| 2026-04-26 11:14 | 55.25182 | -118.54928 | 47461 ft | 503 kts | 1° |
| 2026-04-26 11:14 | 55.32172 | -118.54869 | 47534 ft | 502 kts | 1° |
| 2026-04-26 11:15 | 55.39118 | -118.54811 | 47587 ft | 501 kts | 1° |
| 2026-04-26 11:15 | 55.46076 | -118.54753 | 47644 ft | 500 kts | 1° |
| 2026-04-26 11:16 | 55.53030 | -118.54695 | 47670 ft | 499 kts | 1° |
| 2026-04-26 11:16 | 55.59966 | -118.54637 | 47683 ft | 498 kts | 1° |
| 2026-04-26 11:17 | 55.66891 | -118.54580 | 47675 ft | 497 kts | 1° |
| 2026-04-26 11:17 | 55.73811 | -118.54523 | 47669 ft | 497 kts | 1° |
| 2026-04-26 11:18 | 55.80718 | -118.54466 | 47661 ft | 496 kts | 1° |
| 2026-04-26 11:18 | 55.87628 | -118.54408 | 47641 ft | 496 kts | 1° |
| 2026-04-26 11:19 | 55.94490 | -118.54352 | 47620 ft | 496 kts | 1° |
| 2026-04-26 11:19 | 56.01403 | -118.54295 | 47576 ft | 496 kts | 1° |
| 2026-04-26 11:20 | 56.07137 | -118.54248 | 47559 ft | 496 kts | 1° |
| 2026-04-26 11:20 | 56.15196 | -118.54182 | 47508 ft | 496 kts | 1° |
| 2026-04-26 11:21 | 56.22104 | -118.54125 | 47493 ft | 496 kts | 1° |
| 2026-04-26 11:21 | 56.28998 | -118.54069 | 47430 ft | 496 kts | 1° |
| 2026-04-26 11:22 | 56.35866 | -118.54011 | 47387 ft | 497 kts | 1° |
| 2026-04-26 11:22 | 56.42785 | -118.53951 | 47351 ft | 497 kts | 1° |
| 2026-04-26 11:23 | 56.49717 | -118.53891 | 47310 ft | 498 kts | 1° |
| 2026-04-26 11:23 | 56.56660 | -118.53829 | 47264 ft | 499 kts | 1° |
| 2026-04-26 11:24 | 56.63613 | -118.53767 | 47241 ft | 500 kts | 1° |
| 2026-04-26 11:24 | 56.70593 | -118.53703 | 47210 ft | 501 kts | 1° |
| 2026-04-26 11:25 | 56.77538 | -118.53640 | 47178 ft | 503 kts | 1° |
| 2026-04-26 11:25 | 56.84565 | -118.53575 | 47146 ft | 504 kts | 1° |
| 2026-04-26 11:26 | 56.91601 | -118.53509 | 47106 ft | 506 kts | 0° |
| 2026-04-26 11:26 | 56.98618 | -118.53443 | 47078 ft | 508 kts | 0° |
| 2026-04-26 11:27 | 57.05700 | -118.53375 | 47053 ft | 509 kts | 0° |
| 2026-04-26 11:27 | 57.12811 | -118.53307 | 47035 ft | 511 kts | 0° |
| 2026-04-26 11:28 | 57.19937 | -118.53238 | 47044 ft | 512 kts | 0° |
| 2026-04-26 11:28 | 57.23491 | -118.53204 | 47192 ft | 510 kts | 0° |
| 2026-04-26 11:28 | 57.27036 | -118.53169 | 47286 ft | 508 kts | 0° |
| 2026-04-26 11:29 | 57.34109 | -118.53101 | 47382 ft | 508 kts | 1° |
| 2026-04-26 11:29 | 57.41183 | -118.53032 | 47418 ft | 508 kts | 1° |
| 2026-04-26 11:30 | 57.47044 | -118.52975 | 47449 ft | 507 kts | 1° |
| 2026-04-26 11:30 | 57.55260 | -118.52894 | 47512 ft | 507 kts | 1° |
| 2026-04-26 11:31 | 57.62316 | -118.52825 | 47533 ft | 507 kts | 1° |
| 2026-04-26 11:31 | 57.69380 | -118.52755 | 47552 ft | 507 kts | 1° |
| 2026-04-26 11:32 | 57.76440 | -118.52685 | 47591 ft | 507 kts | 1° |
| 2026-04-26 11:32 | 57.83504 | -118.52615 | 47645 ft | 506 kts | 1° |
| 2026-04-26 11:33 | 57.90501 | -118.52545 | 47680 ft | 506 kts | 0° |
| 2026-04-26 11:33 | 57.97537 | -118.52474 | 47696 ft | 506 kts | 0° |
| 2026-04-26 11:34 | 58.04588 | -118.52402 | 47710 ft | 506 kts | 0° |
| 2026-04-26 11:34 | 58.11633 | -118.52330 | 47711 ft | 506 kts | 0° |
| 2026-04-26 11:35 | 58.18624 | -118.52257 | 47712 ft | 506 kts | 0° |
| 2026-04-26 11:35 | 58.24491 | -118.52196 | 47711 ft | 506 kts | 0° |
| 2026-04-26 11:36 | 58.32730 | -118.52116 | 47704 ft | 507 kts | 0° |
| 2026-04-26 11:36 | 58.39803 | -118.52045 | 47715 ft | 507 kts | 0° |
| 2026-04-26 11:37 | 58.46802 | -118.52643 | 47649 ft | 508 kts | 358° |
| 2026-04-26 11:37 | 58.50340 | -118.52513 | 47495 ft | 505 kts | 7° |
| 2026-04-26 11:37 | 58.53778 | -118.51214 | 46854 ft | 505 kts | 18° |
| 2026-04-26 11:38 | 58.57054 | -118.48717 | 45963 ft | 509 kts | 27° |
| 2026-04-26 11:38 | 58.60304 | -118.45972 | 45007 ft | 512 kts | 21° |
| 2026-04-26 11:38 | 58.63548 | -118.43306 | 44421 ft | 508 kts | 28° |
| 2026-04-26 11:38 | 58.66532 | -118.39753 | 44027 ft | 501 kts | 35° |
| 2026-04-26 11:39 | 58.69323 | -118.35751 | 43585 ft | 496 kts | 37° |
| 2026-04-26 11:39 | 58.72008 | -118.31649 | 43169 ft | 491 kts | 38° |
| 2026-04-26 11:39 | 58.74656 | -118.27541 | 42769 ft | 485 kts | 38° |
| 2026-04-26 11:39 | 58.77268 | -118.23493 | 42381 ft | 480 kts | 38° |
| 2026-04-26 11:40 | 58.79871 | -118.19474 | 41889 ft | 477 kts | 38° |
| 2026-04-26 11:40 | 58.82448 | -118.15503 | 41196 ft | 480 kts | 38° |
| 2026-04-26 11:40 | 58.85056 | -118.11481 | 40698 ft | 477 kts | 38° |
| 2026-04-26 11:40 | 58.87641 | -118.07491 | 40345 ft | 472 kts | 38° |
| 2026-04-26 11:41 | 58.90180 | -118.03564 | 40134 ft | 462 kts | 38° |
| 2026-04-26 11:42 | 59.07188 | -117.77071 | 39756 ft | 443 kts | 38° |
| 2026-04-26 11:43 | 59.12020 | -117.69476 | 39859 ft | 449 kts | 38° |
| 2026-04-26 11:43 | 59.16919 | -117.61745 | 39923 ft | 457 kts | 38° |
| 2026-04-26 11:44 | 59.21891 | -117.53868 | 39990 ft | 465 kts | 38° |
| 2026-04-26 11:44 | 59.26952 | -117.45820 | 40069 ft | 472 kts | 39° |
| 2026-04-26 11:45 | 59.29486 | -117.41776 | 40202 ft | 474 kts | 39° |
| 2026-04-26 11:45 | 59.32039 | -117.37697 | 40342 ft | 475 kts | 39° |
| 2026-04-26 11:45 | 59.34597 | -117.33601 | 40518 ft | 475 kts | 39° |
| 2026-04-26 11:45 | 59.37169 | -117.29475 | 40675 ft | 476 kts | 39° |
| 2026-04-26 11:46 | 59.39735 | -117.25349 | 40785 ft | 478 kts | 39° |
| 2026-04-26 11:46 | 59.42307 | -117.21207 | 40978 ft | 478 kts | 39° |
| 2026-04-26 11:46 | 59.44842 | -117.17115 | 41211 ft | 477 kts | 39° |
| 2026-04-26 11:46 | 59.47450 | -117.12897 | 41359 ft | 478 kts | 39° |
| 2026-04-26 11:47 | 59.52609 | -117.04528 | 41356 ft | 487 kts | 39° |
| 2026-04-26 11:47 | 59.57893 | -116.95921 | 41347 ft | 496 kts | 39° |
| 2026-04-26 11:48 | 59.63251 | -116.87143 | 41371 ft | 505 kts | 39° |
| 2026-04-26 11:48 | 59.68578 | -116.78371 | 41371 ft | 499 kts | 39° |
| 2026-04-26 11:49 | 59.73921 | -116.69532 | 41349 ft | 500 kts | 39° |
| 2026-04-26 11:49 | 59.79286 | -116.60619 | 41346 ft | 500 kts | 39° |
| 2026-04-26 11:50 | 59.84619 | -116.51721 | 41364 ft | 500 kts | 40° |
| 2026-04-26 11:50 | 59.89901 | -116.42870 | 41370 ft | 499 kts | 40° |
| 2026-04-26 11:51 | 59.95211 | -116.33933 | 41366 ft | 499 kts | 40° |
| 2026-04-26 11:51 | 60.00523 | -116.24954 | 41372 ft | 499 kts | 40° |
| 2026-04-26 11:52 | 60.04925 | -116.17484 | 41375 ft | 499 kts | 40° |
| 2026-04-26 11:52 | 60.11111 | -116.06940 | 41379 ft | 500 kts | 40° |
| 2026-04-26 11:53 | 60.16410 | -115.97866 | 41375 ft | 500 kts | 40° |
| 2026-04-26 11:54 | 60.24341 | -115.84208 | 41383 ft | 500 kts | 40° |
| 2026-04-26 11:54 | 60.29617 | -115.75071 | 41374 ft | 501 kts | 40° |
| 2026-04-26 11:55 | 60.34861 | -115.65952 | 41386 ft | 500 kts | 40° |
| 2026-04-26 11:55 | 60.40134 | -115.56741 | 41389 ft | 501 kts | 40° |
| 2026-04-26 11:56 | 60.45392 | -115.47514 | 41387 ft | 501 kts | 41° |
| 2026-04-26 11:56 | 60.50649 | -115.38249 | 41387 ft | 500 kts | 41° |
| 2026-04-26 11:57 | 60.55896 | -115.28958 | 41389 ft | 501 kts | 41° |
| 2026-04-26 11:57 | 60.61143 | -115.19628 | 41386 ft | 501 kts | 41° |
| 2026-04-26 11:58 | 60.66392 | -115.10252 | 41390 ft | 502 kts | 41° |
| 2026-04-26 11:58 | 60.71639 | -115.00836 | 41396 ft | 503 kts | 41° |
| 2026-04-26 11:59 | 60.76006 | -114.92966 | 41374 ft | 502 kts | 41° |
| 2026-04-26 11:59 | 60.82090 | -114.81953 | 41398 ft | 502 kts | 41° |
| 2026-04-26 12:00 | 60.86443 | -114.74037 | 41399 ft | 501 kts | 41° |
| 2026-04-26 12:00 | 60.91665 | -114.64505 | 41399 ft | 503 kts | 41° |
| 2026-04-26 12:01 | 60.96895 | -114.54910 | 41398 ft | 503 kts | 41° |
| 2026-04-26 12:01 | 61.02080 | -114.45356 | 41394 ft | 503 kts | 42° |
| 2026-04-26 12:02 | 61.07287 | -114.35715 | 41397 ft | 503 kts | 42° |
| 2026-04-26 12:02 | 61.12490 | -114.26040 | 41406 ft | 503 kts | 42° |
| 2026-04-26 12:03 | 61.17695 | -114.16316 | 41401 ft | 504 kts | 42° |
| 2026-04-26 12:03 | 61.22903 | -114.06540 | 41403 ft | 504 kts | 42° |
| 2026-04-26 12:04 | 61.28087 | -113.96762 | 41413 ft | 504 kts | 43° |
| 2026-04-26 12:04 | 61.33279 | -113.86924 | 41401 ft | 504 kts | 43° |
| 2026-04-26 12:05 | 61.38417 | -113.77144 | 41414 ft | 501 kts | 43° |
| 2026-04-26 12:05 | 61.43573 | -113.67286 | 41414 ft | 502 kts | 43° |
| 2026-04-26 12:06 | 61.48703 | -113.57428 | 41419 ft | 500 kts | 43° |
| 2026-04-26 12:06 | 61.53829 | -113.47532 | 41425 ft | 501 kts | 43° |
| 2026-04-26 12:07 | 61.58944 | -113.37609 | 41420 ft | 504 kts | 43° |
| 2026-04-26 12:07 | 61.64081 | -113.27599 | 41431 ft | 502 kts | 43° |
| 2026-04-26 12:08 | 61.69199 | -113.17579 | 41423 ft | 503 kts | 44° |
| 2026-04-26 12:08 | 61.74325 | -113.07494 | 41438 ft | 503 kts | 44° |
| 2026-04-26 12:09 | 61.79406 | -112.97451 | 41434 ft | 504 kts | 44° |
| 2026-04-26 12:09 | 61.84514 | -112.87304 | 41433 ft | 504 kts | 44° |
| 2026-04-26 12:10 | 61.89620 | -112.77116 | 41446 ft | 502 kts | 44° |
| 2026-04-26 12:10 | 61.94661 | -112.67006 | 41445 ft | 502 kts | 44° |
| 2026-04-26 12:11 | 61.99755 | -112.56742 | 41446 ft | 504 kts | 44° |
| 2026-04-26 12:11 | 62.04849 | -112.46428 | 41451 ft | 505 kts | 44° |
| 2026-04-26 12:12 | 62.09909 | -112.36131 | 41452 ft | 501 kts | 44° |
| 2026-04-26 12:12 | 62.14945 | -112.25837 | 41453 ft | 501 kts | 44° |
| 2026-04-26 12:13 | 62.19964 | -112.15525 | 41461 ft | 505 kts | 44° |
| 2026-04-26 12:13 | 62.25023 | -112.05081 | 41469 ft | 503 kts | 44° |
| 2026-04-26 12:14 | 62.30062 | -111.94628 | 41467 ft | 501 kts | 44° |
| 2026-04-26 12:14 | 62.35080 | -111.84164 | 41463 ft | 505 kts | 44° |
| 2026-04-26 12:15 | 62.40138 | -111.73566 | 41470 ft | 509 kts | 44° |
| 2026-04-26 12:15 | 62.45193 | -111.62925 | 41473 ft | 506 kts | 45° |
| 2026-04-26 12:16 | 62.50196 | -111.52339 | 41479 ft | 506 kts | 45° |
| 2026-04-26 12:16 | 62.55203 | -111.41690 | 41478 ft | 505 kts | 45° |
| 2026-04-26 12:17 | 62.60212 | -111.30985 | 41484 ft | 507 kts | 45° |
| 2026-04-26 12:17 | 62.65242 | -111.20180 | 41492 ft | 508 kts | 45° |
| 2026-04-26 12:18 | 62.70263 | -111.09341 | 41497 ft | 508 kts | 45° |
| 2026-04-26 12:18 | 62.75263 | -110.98491 | 41497 ft | 507 kts | 45° |
| 2026-04-26 12:19 | 62.80266 | -110.87582 | 41497 ft | 509 kts | 45° |
| 2026-04-26 12:19 | 62.85167 | -110.76837 | 41507 ft | 512 kts | 45° |
| 2026-04-26 12:20 | 62.90165 | -110.65828 | 41511 ft | 511 kts | 45° |
| 2026-04-26 12:20 | 62.95176 | -110.54732 | 41510 ft | 511 kts | 45° |
| 2026-04-26 12:21 | 63.00183 | -110.43587 | 41510 ft | 512 kts | 45° |
| 2026-04-26 12:21 | 63.05183 | -110.32400 | 41522 ft | 512 kts | 45° |
| 2026-04-26 12:22 | 63.10175 | -110.21171 | 41526 ft | 511 kts | 45° |
| 2026-04-26 12:22 | 63.15160 | -110.09901 | 41523 ft | 512 kts | 45° |
| 2026-04-26 12:23 | 63.20106 | -109.98660 | 41532 ft | 513 kts | 45° |
| 2026-04-26 12:23 | 63.25078 | -109.87300 | 41539 ft | 513 kts | 46° |
| 2026-04-26 12:24 | 63.30048 | -109.75887 | 41535 ft | 513 kts | 46° |
| 2026-04-26 12:24 | 63.35013 | -109.64425 | 41537 ft | 513 kts | 46° |
| 2026-04-26 12:25 | 63.42431 | -109.47183 | 41544 ft | 513 kts | 46° |
| 2026-04-26 12:25 | 63.47379 | -109.35606 | 41542 ft | 513 kts | 46° |
| 2026-04-26 12:26 | 63.52260 | -109.24122 | 41545 ft | 513 kts | 46° |
| 2026-04-26 12:26 | 63.57189 | -109.12467 | 41547 ft | 514 kts | 46° |
| 2026-04-26 12:27 | 63.62096 | -109.00800 | 41548 ft | 513 kts | 46° |
| 2026-04-26 12:27 | 63.66990 | -108.89101 | 41545 ft | 513 kts | 46° |
| 2026-04-26 12:28 | 63.71890 | -108.77325 | 41549 ft | 514 kts | 46° |
| 2026-04-26 12:28 | 63.76776 | -108.65518 | 41551 ft | 514 kts | 46° |
| 2026-04-26 12:29 | 63.81655 | -108.53660 | 41555 ft | 515 kts | 46° |
| 2026-04-26 12:30 | 63.88946 | -108.35828 | 41557 ft | 515 kts | 46° |
| 2026-04-26 12:30 | 63.93813 | -108.23839 | 41556 ft | 516 kts | 46° |
| 2026-04-26 12:31 | 64.01069 | -108.05844 | 41565 ft | 516 kts | 46° |
| 2026-04-26 12:31 | 64.05942 | -107.93672 | 41565 ft | 516 kts | 47° |
| 2026-04-26 12:32 | 64.10747 | -107.81607 | 41565 ft | 516 kts | 47° |
| 2026-04-26 12:33 | 64.17973 | -107.63333 | 41569 ft | 516 kts | 47° |
| 2026-04-26 12:33 | 64.22785 | -107.51080 | 41569 ft | 517 kts | 47° |
| 2026-04-26 12:34 | 64.27585 | -107.38786 | 41573 ft | 516 kts | 47° |
| 2026-04-26 12:34 | 64.32378 | -107.26443 | 41571 ft | 516 kts | 47° |
| 2026-04-26 12:35 | 64.37124 | -107.14152 | 41578 ft | 516 kts | 47° |
| 2026-04-26 12:35 | 64.41893 | -107.01731 | 41582 ft | 516 kts | 47° |
| 2026-04-26 12:36 | 64.46666 | -106.89228 | 41580 ft | 517 kts | 47° |
| 2026-04-26 12:36 | 64.51412 | -106.76724 | 41579 ft | 517 kts | 48° |
| 2026-04-26 12:37 | 64.56129 | -106.64228 | 41587 ft | 517 kts | 48° |
| 2026-04-26 12:37 | 64.60854 | -106.51637 | 41590 ft | 517 kts | 48° |
| 2026-04-26 12:38 | 64.65580 | -106.38973 | 41592 ft | 517 kts | 48° |
| 2026-04-26 12:38 | 64.70302 | -106.26244 | 41590 ft | 518 kts | 48° |
| 2026-04-26 12:39 | 64.75001 | -106.13503 | 41595 ft | 517 kts | 48° |
| 2026-04-26 12:39 | 64.79682 | -106.00737 | 41595 ft | 517 kts | 48° |
| 2026-04-26 12:40 | 64.84367 | -105.87886 | 41592 ft | 517 kts | 49° |
| 2026-04-26 12:40 | 64.89001 | -105.75100 | 41597 ft | 517 kts | 49° |
| 2026-04-26 12:41 | 64.93654 | -105.62186 | 41601 ft | 517 kts | 49° |
| 2026-04-26 12:41 | 64.98297 | -105.49226 | 41602 ft | 517 kts | 49° |
| 2026-04-26 12:42 | 65.02924 | -105.36232 | 41602 ft | 517 kts | 49° |
| 2026-04-26 12:42 | 65.07548 | -105.23169 | 41605 ft | 517 kts | 49° |
| 2026-04-26 12:43 | 65.12160 | -105.10066 | 41610 ft | 517 kts | 49° |
| 2026-04-26 12:43 | 65.16758 | -104.96921 | 41612 ft | 518 kts | 49° |
| 2026-04-26 12:44 | 65.21324 | -104.83790 | 41599 ft | 517 kts | 49° |
| 2026-04-26 12:44 | 65.25909 | -104.70525 | 41600 ft | 518 kts | 49° |
| 2026-04-26 12:45 | 65.30484 | -104.57212 | 41629 ft | 518 kts | 50° |
| 2026-04-26 12:45 | 65.35036 | -104.43884 | 41634 ft | 518 kts | 50° |
| 2026-04-26 12:46 | 65.39584 | -104.30484 | 41613 ft | 518 kts | 50° |
| 2026-04-26 12:46 | 65.44130 | -104.17010 | 41608 ft | 518 kts | 50° |
| 2026-04-26 12:47 | 65.48635 | -104.03577 | 41625 ft | 519 kts | 50° |
| 2026-04-26 12:47 | 65.53151 | -103.90026 | 41646 ft | 519 kts | 50° |
| 2026-04-26 12:48 | 65.57658 | -103.76423 | 41641 ft | 519 kts | 50° |
| 2026-04-26 12:48 | 65.61406 | -103.65044 | 41621 ft | 519 kts | 50° |
| 2026-04-26 12:49 | 65.65895 | -103.51336 | 41646 ft | 520 kts | 50° |
| 2026-04-26 12:49 | 65.70378 | -103.37564 | 41637 ft | 520 kts | 50° |
| 2026-04-26 12:50 | 65.74853 | -103.23731 | 41637 ft | 520 kts | 50° |
| 2026-04-26 12:50 | 65.79317 | -103.09845 | 41637 ft | 520 kts | 51° |
| 2026-04-26 12:51 | 65.83763 | -102.95925 | 41646 ft | 520 kts | 51° |
| 2026-04-26 12:51 | 65.88177 | -102.82020 | 41644 ft | 521 kts | 51° |
| 2026-04-26 12:52 | 65.92609 | -102.67969 | 41643 ft | 522 kts | 51° |
| 2026-04-26 12:52 | 65.97042 | -102.53826 | 41645 ft | 522 kts | 51° |
| 2026-04-26 12:53 | 66.01444 | -102.39689 | 41647 ft | 522 kts | 51° |
| 2026-04-26 12:53 | 66.05814 | -102.25568 | 41649 ft | 522 kts | 51° |
| 2026-04-26 12:54 | 66.10214 | -102.11254 | 41662 ft | 523 kts | 51° |
| 2026-04-26 12:54 | 66.14573 | -101.96984 | 41648 ft | 523 kts | 51° |
| 2026-04-26 12:55 | 66.18949 | -101.82567 | 41659 ft | 523 kts | 51° |
| 2026-04-26 12:55 | 66.23307 | -101.68114 | 41659 ft | 523 kts | 52° |
| 2026-04-26 12:56 | 66.27654 | -101.53604 | 41656 ft | 523 kts | 52° |
| 2026-04-26 12:56 | 66.31955 | -101.39149 | 41661 ft | 523 kts | 52° |
| 2026-04-26 12:57 | 66.36290 | -101.24487 | 41663 ft | 525 kts | 52° |
| 2026-04-26 12:57 | 66.40604 | -101.09797 | 41664 ft | 525 kts | 52° |
| 2026-04-26 12:58 | 66.47034 | -100.87720 | 41666 ft | 525 kts | 52° |
| 2026-04-26 12:58 | 66.51337 | -100.72821 | 41666 ft | 525 kts | 52° |
| 2026-04-26 12:59 | 66.55579 | -100.58034 | 41670 ft | 526 kts | 52° |
| 2026-04-26 12:59 | 66.59844 | -100.43070 | 41669 ft | 526 kts | 52° |
| 2026-04-26 13:00 | 66.64094 | -100.28052 | 41671 ft | 526 kts | 53° |
| 2026-04-26 13:00 | 66.68330 | -100.12984 | 41672 ft | 526 kts | 53° |
| 2026-04-26 13:01 | 66.72557 | -99.97843 | 41674 ft | 526 kts | 53° |
| 2026-04-26 13:01 | 66.76764 | -99.82673 | 41681 ft | 527 kts | 53° |
| 2026-04-26 13:02 | 66.80970 | -99.67399 | 41678 ft | 528 kts | 53° |
| 2026-04-26 13:02 | 66.85134 | -99.52171 | 41678 ft | 528 kts | 53° |
| 2026-04-26 13:03 | 66.89313 | -99.36783 | 41680 ft | 528 kts | 53° |
| 2026-04-26 13:03 | 66.93478 | -99.21338 | 41680 ft | 528 kts | 54° |
| 2026-04-26 13:04 | 66.97601 | -99.05942 | 41678 ft | 527 kts | 54° |
| 2026-04-26 13:04 | 67.01738 | -98.90387 | 41684 ft | 529 kts | 54° |
| 2026-04-26 13:05 | 67.05868 | -98.74747 | 41685 ft | 529 kts | 54° |
| 2026-04-26 13:05 | 67.09974 | -98.59083 | 41685 ft | 529 kts | 54° |
| 2026-04-26 13:06 | 67.14071 | -98.43342 | 41685 ft | 529 kts | 54° |
| 2026-04-26 13:06 | 67.18128 | -98.27647 | 41685 ft | 529 kts | 54° |
| 2026-04-26 13:07 | 67.22189 | -98.11819 | 41688 ft | 529 kts | 54° |
| 2026-04-26 13:07 | 67.26232 | -97.95948 | 41688 ft | 529 kts | 55° |
| 2026-04-26 13:08 | 67.30266 | -97.79997 | 41688 ft | 529 kts | 55° |
| 2026-04-26 13:08 | 67.34288 | -97.63977 | 41691 ft | 529 kts | 55° |
| 2026-04-26 13:09 | 67.38299 | -97.47884 | 41696 ft | 529 kts | 55° |
| 2026-04-26 13:09 | 67.42256 | -97.31887 | 41705 ft | 531 kts | 55° |
| 2026-04-26 13:10 | 67.46233 | -97.15695 | 41696 ft | 531 kts | 55° |
| 2026-04-26 13:10 | 67.50201 | -96.99418 | 41697 ft | 531 kts | 56° |
| 2026-04-26 13:11 | 67.54152 | -96.83085 | 41700 ft | 531 kts | 56° |
| 2026-04-26 13:11 | 67.58084 | -96.66711 | 41700 ft | 531 kts | 56° |
| 2026-04-26 13:12 | 67.61979 | -96.50371 | 41706 ft | 531 kts | 56° |
| 2026-04-26 13:12 | 67.65884 | -96.33860 | 41699 ft | 533 kts | 56° |
| 2026-04-26 13:13 | 67.69777 | -96.17280 | 41703 ft | 532 kts | 56° |
| 2026-04-26 13:13 | 67.73662 | -96.00601 | 41703 ft | 533 kts | 56° |
| 2026-04-26 13:14 | 67.77527 | -95.83880 | 41704 ft | 533 kts | 57° |
| 2026-04-26 13:14 | 67.81366 | -95.67143 | 41705 ft | 533 kts | 57° |
| 2026-04-26 13:15 | 67.85173 | -95.50418 | 41719 ft | 535 kts | 57° |
| 2026-04-26 13:15 | 67.88379 | -95.36233 | 41696 ft | 534 kts | 57° |
| 2026-04-26 13:16 | 67.92803 | -95.16500 | 41700 ft | 534 kts | 57° |
| 2026-04-26 13:16 | 67.96589 | -94.99471 | 41694 ft | 534 kts | 57° |
| 2026-04-26 13:17 | 68.02216 | -94.73912 | 41723 ft | 535 kts | 57° |
| 2026-04-26 13:18 | 68.07842 | -94.48045 | 41715 ft | 536 kts | 58° |
| 2026-04-26 13:19 | 68.13419 | -94.22090 | 41710 ft | 536 kts | 58° |
| 2026-04-26 13:19 | 68.17119 | -94.04695 | 41727 ft | 536 kts | 58° |
| 2026-04-26 13:20 | 68.20778 | -93.87356 | 41725 ft | 536 kts | 58° |
| 2026-04-26 13:20 | 68.24453 | -93.69794 | 41736 ft | 537 kts | 58° |
| 2026-04-26 13:21 | 68.28111 | -93.52170 | 41736 ft | 537 kts | 58° |
| 2026-04-26 13:21 | 68.31747 | -93.34505 | 41747 ft | 539 kts | 58° |
| 2026-04-26 13:22 | 68.35344 | -93.16881 | 41746 ft | 537 kts | 59° |
| 2026-04-26 13:22 | 68.38936 | -92.99137 | 41752 ft | 538 kts | 59° |
| 2026-04-26 13:23 | 68.42529 | -92.81234 | 41750 ft | 539 kts | 59° |
| 2026-04-26 13:23 | 68.46099 | -92.63296 | 41760 ft | 539 kts | 59° |
| 2026-04-26 13:24 | 68.49647 | -92.45315 | 41760 ft | 539 kts | 59° |
| 2026-04-26 13:24 | 68.53179 | -92.27257 | 41769 ft | 539 kts | 59° |
| 2026-04-26 13:25 | 68.56673 | -92.09241 | 41768 ft | 539 kts | 59° |
| 2026-04-26 13:25 | 68.60168 | -91.91065 | 41782 ft | 540 kts | 59° |
| 2026-04-26 13:26 | 68.63652 | -91.72791 | 41776 ft | 541 kts | 59° |
| 2026-04-26 13:26 | 68.67121 | -91.54427 | 41790 ft | 541 kts | 60° |
| 2026-04-26 13:27 | 68.70574 | -91.35985 | 41787 ft | 541 kts | 60° |
| 2026-04-26 13:27 | 68.73997 | -91.17540 | 41793 ft | 541 kts | 60° |
| 2026-04-26 13:28 | 68.77398 | -90.99050 | 41792 ft | 541 kts | 60° |
| 2026-04-26 13:28 | 68.80771 | -90.80546 | 41780 ft | 542 kts | 60° |
| 2026-04-26 13:29 | 68.84148 | -90.61852 | 41808 ft | 543 kts | 60° |
| 2026-04-26 13:29 | 68.87500 | -90.43127 | 41797 ft | 542 kts | 60° |
| 2026-04-26 13:30 | 68.90836 | -90.24317 | 41798 ft | 542 kts | 61° |
| 2026-04-26 13:30 | 68.94143 | -90.05501 | 41797 ft | 542 kts | 61° |
| 2026-04-26 13:31 | 68.97420 | -89.86677 | 41797 ft | 543 kts | 61° |
| 2026-04-26 13:31 | 69.00691 | -89.67712 | 41795 ft | 543 kts | 61° |
| 2026-04-26 13:32 | 69.03948 | -89.48648 | 41795 ft | 543 kts | 62° |
| 2026-04-26 13:32 | 69.07180 | -89.29553 | 41796 ft | 543 kts | 62° |
| 2026-04-26 13:33 | 69.10394 | -89.10385 | 41794 ft | 543 kts | 62° |
| 2026-04-26 13:33 | 69.13585 | -88.91162 | 41793 ft | 544 kts | 62° |
| 2026-04-26 13:34 | 69.16736 | -88.71998 | 41795 ft | 544 kts | 62° |
| 2026-04-26 13:34 | 69.19880 | -88.52697 | 41800 ft | 543 kts | 62° |
| 2026-04-26 13:35 | 69.23010 | -88.33282 | 41792 ft | 542 kts | 63° |
| 2026-04-26 13:35 | 69.25585 | -88.17172 | 41792 ft | 543 kts | 63° |
| 2026-04-26 13:36 | 69.29168 | -87.94531 | 41798 ft | 543 kts | 63° |
| 2026-04-26 13:36 | 69.32229 | -87.74973 | 41786 ft | 544 kts | 63° |
| 2026-04-26 13:37 | 69.34776 | -87.58551 | 41780 ft | 544 kts | 63° |
| 2026-04-26 13:37 | 69.37779 | -87.39011 | 41778 ft | 544 kts | 63° |
| 2026-04-26 13:38 | 69.40778 | -87.19297 | 41774 ft | 544 kts | 64° |
| 2026-04-26 13:38 | 69.43754 | -86.99529 | 41776 ft | 544 kts | 64° |
| 2026-04-26 13:39 | 69.46714 | -86.79660 | 41775 ft | 545 kts | 64° |
| 2026-04-26 13:39 | 69.49656 | -86.59714 | 41802 ft | 545 kts | 64° |
| 2026-04-26 13:40 | 69.52565 | -86.39775 | 41758 ft | 543 kts | 64° |
| 2026-04-26 13:40 | 69.55432 | -86.19915 | 41771 ft | 544 kts | 64° |
| 2026-04-26 13:41 | 69.58297 | -85.99864 | 41779 ft | 544 kts | 64° |
| 2026-04-26 13:41 | 69.61135 | -85.79781 | 41760 ft | 544 kts | 65° |
| 2026-04-26 13:42 | 69.63945 | -85.59684 | 41757 ft | 544 kts | 65° |
| 2026-04-26 13:42 | 69.66742 | -85.39463 | 41752 ft | 544 kts | 65° |
| 2026-04-26 13:43 | 69.69517 | -85.19177 | 41755 ft | 545 kts | 65° |
| 2026-04-26 13:43 | 69.72267 | -84.98844 | 41747 ft | 545 kts | 65° |
| 2026-04-26 13:44 | 69.75001 | -84.78406 | 41757 ft | 545 kts | 65° |
| 2026-04-26 13:44 | 69.77712 | -84.57918 | 41731 ft | 546 kts | 66° |
| 2026-04-26 13:45 | 69.80375 | -84.37548 | 41731 ft | 544 kts | 66° |
| 2026-04-26 13:45 | 69.83029 | -84.17026 | 41728 ft | 544 kts | 66° |
| 2026-04-26 13:46 | 69.85657 | -83.96460 | 41715 ft | 544 kts | 66° |
| 2026-04-26 13:46 | 69.88267 | -83.75801 | 41720 ft | 544 kts | 66° |
| 2026-04-26 13:47 | 69.90851 | -83.55107 | 41705 ft | 545 kts | 66° |
| 2026-04-26 13:47 | 69.93415 | -83.34329 | 41721 ft | 545 kts | 67° |
| 2026-04-26 13:48 | 69.95940 | -83.13617 | 41698 ft | 545 kts | 67° |
| 2026-04-26 13:48 | 69.98450 | -82.92779 | 41686 ft | 544 kts | 67° |
| 2026-04-26 13:49 | 70.00943 | -82.71837 | 41687 ft | 545 kts | 68° |
| 2026-04-26 13:49 | 70.03410 | -82.50847 | 41709 ft | 546 kts | 68° |
| 2026-04-26 13:50 | 70.05850 | -82.29819 | 41688 ft | 543 kts | 68° |
| 2026-04-26 13:50 | 70.08259 | -82.08814 | 41684 ft | 543 kts | 68° |
| 2026-04-26 13:51 | 70.10629 | -81.87875 | 41681 ft | 543 kts | 68° |
| 2026-04-26 13:51 | 70.12988 | -81.66771 | 41679 ft | 544 kts | 68° |
| 2026-04-26 13:52 | 70.15323 | -81.45614 | 41684 ft | 544 kts | 68° |
| 2026-04-26 13:52 | 70.17641 | -81.24331 | 41669 ft | 544 kts | 69° |
| 2026-04-26 13:53 | 70.19913 | -81.03196 | 41661 ft | 544 kts | 69° |
| 2026-04-26 13:53 | 70.22177 | -80.81857 | 41661 ft | 544 kts | 69° |
| 2026-04-26 13:54 | 70.24412 | -80.60499 | 41652 ft | 544 kts | 69° |
| 2026-04-26 13:54 | 70.26627 | -80.39055 | 41648 ft | 544 kts | 70° |
| 2026-04-26 13:55 | 70.29528 | -80.10497 | 41638 ft | 542 kts | 70° |
| 2026-04-26 13:56 | 70.33078 | -79.74827 | 41635 ft | 543 kts | 70° |
| 2026-04-26 13:56 | 70.35184 | -79.53266 | 41636 ft | 543 kts | 70° |
| 2026-04-26 13:57 | 70.37262 | -79.31682 | 41635 ft | 543 kts | 70° |
| 2026-04-26 13:57 | 70.39317 | -79.10019 | 41633 ft | 544 kts | 70° |
| 2026-04-26 13:58 | 70.41339 | -78.88401 | 41633 ft | 544 kts | 71° |
| 2026-04-26 13:58 | 70.43340 | -78.66673 | 41631 ft | 544 kts | 71° |
| 2026-04-26 13:59 | 70.45319 | -78.44861 | 41632 ft | 544 kts | 71° |
| 2026-04-26 13:59 | 70.47273 | -78.23002 | 41626 ft | 544 kts | 71° |
| 2026-04-26 14:00 | 70.51091 | -77.79267 | 41630 ft | 541 kts | 72° |
| 2026-04-26 14:01 | 70.52957 | -77.57383 | 41626 ft | 541 kts | 72° |
| 2026-04-26 14:01 | 70.54784 | -77.35616 | 41628 ft | 541 kts | 72° |
| 2026-04-26 14:02 | 70.56599 | -77.13635 | 41626 ft | 542 kts | 72° |
| 2026-04-26 14:02 | 70.58383 | -76.91676 | 41628 ft | 542 kts | 72° |
| 2026-04-26 14:03 | 70.60145 | -76.69613 | 41611 ft | 542 kts | 73° |
| 2026-04-26 14:03 | 70.61885 | -76.47470 | 41613 ft | 542 kts | 73° |
| 2026-04-26 14:04 | 70.63581 | -76.25491 | 41603 ft | 542 kts | 73° |
| 2026-04-26 14:04 | 70.65262 | -76.03329 | 41602 ft | 543 kts | 73° |
| 2026-04-26 14:05 | 70.66920 | -75.81091 | 41601 ft | 543 kts | 73° |
| 2026-04-26 14:05 | 70.68551 | -75.58803 | 41606 ft | 542 kts | 73° |
| 2026-04-26 14:06 | 70.70153 | -75.36504 | 41599 ft | 543 kts | 74° |
| 2026-04-26 14:06 | 70.71719 | -75.14303 | 41598 ft | 543 kts | 74° |
| 2026-04-26 14:07 | 70.73267 | -74.91947 | 41597 ft | 543 kts | 74° |
| 2026-04-26 14:07 | 70.74791 | -74.69494 | 41594 ft | 543 kts | 75° |
| 2026-04-26 14:08 | 70.76288 | -74.47011 | 41610 ft | 543 kts | 75° |
| 2026-04-26 14:08 | 70.77755 | -74.24515 | 41573 ft | 543 kts | 75° |
| 2026-04-26 14:09 | 70.79188 | -74.02109 | 41573 ft | 543 kts | 75° |
| 2026-04-26 14:09 | 70.80603 | -73.79527 | 41571 ft | 543 kts | 75° |
| 2026-04-26 14:10 | 70.81977 | -73.57080 | 41575 ft | 530 kts | 76° |
| 2026-04-26 14:10 | 70.82632 | -73.46162 | 41568 ft | 516 kts | 76° |
| 2026-04-26 14:10 | 70.83262 | -73.35585 | 41550 ft | 503 kts | 76° |
| 2026-04-26 14:11 | 70.85109 | -73.04551 | 41547 ft | 499 kts | 76° |
| 2026-04-26 14:11 | 70.86336 | -72.83559 | 41541 ft | 506 kts | 76° |
| 2026-04-26 14:12 | 70.87521 | -72.62683 | 41539 ft | 494 kts | 76° |
| 2026-04-26 14:12 | 70.88667 | -72.42139 | 41528 ft | 495 kts | 76° |
| 2026-04-26 14:13 | 70.90360 | -72.10997 | 41526 ft | 496 kts | 76° |
| 2026-04-26 14:14 | 70.91459 | -71.90180 | 41517 ft | 496 kts | 77° |
| 2026-04-26 14:14 | 70.92535 | -71.69360 | 41515 ft | 496 kts | 77° |
| 2026-04-26 14:15 | 70.93586 | -71.48533 | 41506 ft | 496 kts | 77° |
| 2026-04-26 14:15 | 70.94616 | -71.27643 | 41508 ft | 496 kts | 77° |
| 2026-04-26 14:16 | 70.95622 | -71.06738 | 41537 ft | 496 kts | 78° |
| 2026-04-26 14:16 | 70.96600 | -70.85921 | 41522 ft | 495 kts | 78° |
| 2026-04-26 14:17 | 70.97556 | -70.65021 | 41517 ft | 495 kts | 78° |
| 2026-04-26 14:17 | 70.98489 | -70.44113 | 41508 ft | 494 kts | 78° |
| 2026-04-26 14:18 | 70.99020 | -70.23097 | 41496 ft | 497 kts | 87° |
| 2026-04-26 14:18 | 70.99526 | -70.02166 | 41468 ft | 487 kts | 70° |
| 2026-04-26 14:19 | 71.01979 | -69.83065 | 41468 ft | 479 kts | 61° |
| 2026-04-26 14:19 | 71.04546 | -69.64127 | 41479 ft | 480 kts | 63° |
| 2026-04-26 14:20 | 71.07140 | -69.45135 | 41462 ft | 481 kts | 63° |
| 2026-04-26 14:20 | 71.09645 | -69.26000 | 41469 ft | 482 kts | 64° |
| 2026-04-26 14:21 | 71.12087 | -69.06802 | 41481 ft | 483 kts | 65° |
| 2026-04-26 14:21 | 71.14519 | -68.87417 | 41476 ft | 484 kts | 65° |
| 2026-04-26 14:22 | 71.16934 | -68.67970 | 41475 ft | 484 kts | 65° |
| 2026-04-26 14:22 | 71.19329 | -68.48478 | 41465 ft | 484 kts | 65° |
| 2026-04-26 14:23 | 71.21307 | -68.32215 | 41453 ft | 484 kts | 65° |
| 2026-04-26 14:23 | 71.24048 | -68.09429 | 41470 ft | 484 kts | 65° |
| 2026-04-26 14:24 | 71.26008 | -67.92959 | 41442 ft | 485 kts | 66° |
| 2026-04-26 14:24 | 71.28313 | -67.73386 | 41432 ft | 484 kts | 66° |
| 2026-04-26 14:25 | 71.30608 | -67.53680 | 41443 ft | 484 kts | 66° |
| 2026-04-26 14:25 | 71.32880 | -67.33939 | 41419 ft | 483 kts | 66° |
| 2026-04-26 14:26 | 71.35127 | -67.14196 | 41408 ft | 482 kts | 67° |
| 2026-04-26 14:26 | 71.37352 | -66.94419 | 41404 ft | 481 kts | 67° |
| 2026-04-26 14:27 | 71.39539 | -66.74753 | 41388 ft | 480 kts | 67° |
| 2026-04-26 14:27 | 71.41711 | -66.54991 | 41363 ft | 480 kts | 67° |
| 2026-04-26 14:28 | 71.43867 | -66.35147 | 41368 ft | 480 kts | 68° |
| 2026-04-26 14:28 | 71.46001 | -66.15265 | 41366 ft | 480 kts | 68° |
| 2026-04-26 14:29 | 71.48102 | -65.95459 | 41365 ft | 480 kts | 68° |
| 2026-04-26 14:29 | 71.50196 | -65.75473 | 41361 ft | 480 kts | 68° |
| 2026-04-26 14:30 | 71.52266 | -65.55478 | 41362 ft | 480 kts | 68° |
| 2026-04-26 14:30 | 71.54316 | -65.35428 | 41336 ft | 480 kts | 69° |
| 2026-04-26 14:31 | 71.56347 | -65.15313 | 41335 ft | 480 kts | 69° |
| 2026-04-26 14:31 | 71.58342 | -64.95311 | 41335 ft | 480 kts | 69° |
| 2026-04-26 14:32 | 71.60331 | -64.75105 | 41318 ft | 481 kts | 69° |
| 2026-04-26 14:32 | 71.62297 | -64.54881 | 41345 ft | 481 kts | 70° |
| 2026-04-26 14:33 | 71.64247 | -64.34550 | 41336 ft | 481 kts | 70° |
| 2026-04-26 14:33 | 71.66171 | -64.14227 | 41313 ft | 481 kts | 70° |
| 2026-04-26 14:34 | 71.68077 | -63.93828 | 41307 ft | 480 kts | 70° |
| 2026-04-26 14:34 | 71.69956 | -63.73442 | 41309 ft | 480 kts | 70° |
| 2026-04-26 14:35 | 71.71799 | -63.53176 | 41282 ft | 480 kts | 71° |
| 2026-04-26 14:35 | 71.73634 | -63.32724 | 41279 ft | 479 kts | 71° |
| 2026-04-26 14:36 | 71.75444 | -63.12266 | 41273 ft | 479 kts | 71° |
| 2026-04-26 14:36 | 71.77231 | -62.91783 | 41277 ft | 479 kts | 71° |
| 2026-04-26 14:37 | 71.79000 | -62.71220 | 41259 ft | 479 kts | 71° |
| 2026-04-26 14:37 | 71.80744 | -62.50653 | 41256 ft | 479 kts | 72° |
| 2026-04-26 14:38 | 71.82453 | -62.30202 | 41251 ft | 478 kts | 72° |
| 2026-04-26 14:38 | 71.84152 | -62.09579 | 41255 ft | 479 kts | 72° |
| 2026-04-26 14:39 | 71.85830 | -61.88895 | 41241 ft | 479 kts | 72° |
| 2026-04-26 14:39 | 71.87491 | -61.68122 | 41230 ft | 479 kts | 73° |
| 2026-04-26 14:40 | 71.89117 | -61.47466 | 41222 ft | 479 kts | 73° |
| 2026-04-26 14:40 | 71.90728 | -61.26687 | 41240 ft | 479 kts | 73° |
| 2026-04-26 14:41 | 71.92321 | -61.05811 | 41232 ft | 479 kts | 73° |
| 2026-04-26 14:41 | 71.93888 | -60.84947 | 41217 ft | 479 kts | 74° |
| 2026-04-26 14:42 | 71.95432 | -60.64067 | 41214 ft | 479 kts | 74° |
| 2026-04-26 14:42 | 71.96954 | -60.43139 | 41203 ft | 479 kts | 74° |
| 2026-04-26 14:43 | 71.98455 | -60.22280 | 41190 ft | 479 kts | 76° |
| 2026-04-26 14:43 | 71.99549 | -60.01023 | 41186 ft | 480 kts | 79° |
| 2026-04-26 14:44 | 72.00417 | -59.79623 | 41187 ft | 481 kts | 82° |
| 2026-04-26 14:44 | 72.00948 | -59.58035 | 41186 ft | 481 kts | 83° |
| 2026-04-26 14:45 | 72.01512 | -59.36564 | 41190 ft | 481 kts | 83° |
| 2026-04-26 14:45 | 72.02009 | -59.14934 | 41188 ft | 481 kts | 84° |
| 2026-04-26 14:46 | 72.02459 | -58.93342 | 41181 ft | 481 kts | 84° |
| 2026-04-26 14:46 | 72.02883 | -58.71704 | 41170 ft | 481 kts | 84° |
| 2026-04-26 14:47 | 72.03283 | -58.50052 | 41171 ft | 481 kts | 85° |
| 2026-04-26 14:47 | 72.03660 | -58.28364 | 41170 ft | 481 kts | 85° |
| 2026-04-26 14:48 | 72.04014 | -58.06666 | 41166 ft | 481 kts | 85° |
| 2026-04-26 14:48 | 72.04340 | -57.85149 | 41159 ft | 482 kts | 85° |
| 2026-04-26 14:49 | 72.04645 | -57.63436 | 41160 ft | 482 kts | 85° |
| 2026-04-26 14:49 | 72.04926 | -57.41695 | 41149 ft | 482 kts | 86° |
| 2026-04-26 14:50 | 72.05183 | -57.19952 | 41153 ft | 483 kts | 86° |
| 2026-04-26 14:50 | 72.05416 | -56.98155 | 41136 ft | 483 kts | 86° |
| 2026-04-26 14:51 | 72.05625 | -56.76329 | 41135 ft | 484 kts | 86° |
| 2026-04-26 14:51 | 72.05809 | -56.54628 | 41141 ft | 484 kts | 87° |
| 2026-04-26 14:52 | 72.05971 | -56.32749 | 41129 ft | 484 kts | 87° |
| 2026-04-26 14:52 | 72.06107 | -56.10890 | 41129 ft | 485 kts | 88° |
| 2026-04-26 14:53 | 72.06218 | -55.89121 | 41127 ft | 485 kts | 88° |
| 2026-04-26 14:53 | 72.06306 | -55.67214 | 41121 ft | 485 kts | 88° |
| 2026-04-26 14:54 | 72.06369 | -55.45330 | 41142 ft | 485 kts | 89° |
| 2026-04-26 14:54 | 72.06407 | -55.23415 | 41132 ft | 485 kts | 89° |
| 2026-04-26 14:55 | 72.06421 | -55.01522 | 41133 ft | 485 kts | 89° |
| 2026-04-26 14:55 | 72.06410 | -54.79665 | 41133 ft | 484 kts | 89° |
| 2026-04-26 14:56 | 72.06376 | -54.57792 | 41118 ft | 483 kts | 90° |
| 2026-04-26 14:56 | 72.06316 | -54.36032 | 41115 ft | 483 kts | 90° |
| 2026-04-26 14:57 | 72.06232 | -54.14248 | 41099 ft | 482 kts | 90° |
| 2026-04-26 14:57 | 72.06126 | -53.92661 | 41095 ft | 481 kts | 90° |
| 2026-04-26 14:58 | 72.05994 | -53.70942 | 41093 ft | 481 kts | 91° |
| 2026-04-26 14:58 | 72.05839 | -53.49239 | 41076 ft | 481 kts | 91° |
| 2026-04-26 14:59 | 72.05660 | -53.27572 | 41078 ft | 480 kts | 92° |
| 2026-04-26 14:59 | 72.05457 | -53.05914 | 41076 ft | 481 kts | 92° |
| 2026-04-26 15:00 | 72.05229 | -52.84212 | 41062 ft | 481 kts | 92° |
| 2026-04-26 15:00 | 72.04977 | -52.62577 | 41061 ft | 481 kts | 92° |
| 2026-04-26 15:01 | 72.04703 | -52.41019 | 41057 ft | 481 kts | 92° |
| 2026-04-26 15:01 | 72.04404 | -52.19340 | 41062 ft | 482 kts | 93° |
| 2026-04-26 15:02 | 72.04080 | -51.97652 | 41044 ft | 482 kts | 93° |
| 2026-04-26 15:02 | 72.03732 | -51.75944 | 41035 ft | 482 kts | 94° |
| 2026-04-26 15:03 | 72.03359 | -51.54239 | 41037 ft | 482 kts | 94° |
| 2026-04-26 15:03 | 72.02962 | -51.32530 | 41017 ft | 482 kts | 94° |
| 2026-04-26 15:04 | 72.02541 | -51.10841 | 41020 ft | 482 kts | 94° |
| 2026-04-26 15:04 | 72.02098 | -50.89279 | 41020 ft | 482 kts | 95° |
| 2026-04-26 15:05 | 72.01629 | -50.67603 | 41025 ft | 482 kts | 95° |
| 2026-04-26 15:05 | 72.01136 | -50.45934 | 41009 ft | 482 kts | 95° |
| 2026-04-26 15:06 | 72.00626 | -50.24287 | 41008 ft | 482 kts | 95° |
| 2026-04-26 15:06 | 72.00107 | -50.02830 | 41004 ft | 482 kts | 95° |
| 2026-04-26 15:07 | 71.99234 | -49.70422 | 40968 ft | 481 kts | 95° |
| 2026-04-26 15:07 | 71.98717 | -49.48846 | 40964 ft | 481 kts | 95° |
| 2026-04-26 15:08 | 71.98181 | -49.27446 | 40969 ft | 481 kts | 96° |
| 2026-04-26 15:08 | 71.97595 | -49.05923 | 40973 ft | 481 kts | 96° |
| 2026-04-26 15:09 | 71.96978 | -48.84432 | 40939 ft | 480 kts | 96° |
| 2026-04-26 15:09 | 71.96338 | -48.62963 | 40939 ft | 480 kts | 97° |
| 2026-04-26 15:10 | 71.95899 | -48.48701 | 40941 ft | 480 kts | 97° |
| 2026-04-26 15:10 | 71.95102 | -48.23634 | 40931 ft | 481 kts | 97° |
| 2026-04-26 15:11 | 71.94395 | -48.02197 | 40925 ft | 481 kts | 97° |
| 2026-04-26 15:11 | 71.93663 | -47.80751 | 40922 ft | 481 kts | 97° |
| 2026-04-26 15:12 | 71.92908 | -47.59339 | 40907 ft | 481 kts | 98° |
| 2026-04-26 15:12 | 71.92134 | -47.38043 | 40917 ft | 481 kts | 98° |
| 2026-04-26 15:13 | 71.91331 | -47.16664 | 40912 ft | 481 kts | 99° |
| 2026-04-26 15:13 | 71.90504 | -46.95285 | 40914 ft | 481 kts | 99° |
| 2026-04-26 15:14 | 71.89653 | -46.73889 | 40904 ft | 481 kts | 99° |
| 2026-04-26 15:14 | 71.88779 | -46.52538 | 40903 ft | 481 kts | 99° |
| 2026-04-26 15:15 | 71.87883 | -46.31238 | 40900 ft | 481 kts | 99° |
| 2026-04-26 15:15 | 71.86968 | -46.10044 | 40894 ft | 481 kts | 100° |
| 2026-04-26 15:16 | 71.86025 | -45.88791 | 40879 ft | 481 kts | 100° |
| 2026-04-26 15:16 | 71.85058 | -45.67533 | 40877 ft | 481 kts | 101° |
| 2026-04-26 15:17 | 71.84237 | -45.49886 | 40876 ft | 481 kts | 101° |
| 2026-04-26 15:17 | 71.83061 | -45.25217 | 40873 ft | 481 kts | 101° |
| 2026-04-26 15:18 | 71.82025 | -45.04046 | 40874 ft | 481 kts | 101° |
| 2026-04-26 15:18 | 71.80966 | -44.82883 | 40870 ft | 481 kts | 102° |
| 2026-04-26 15:19 | 71.79885 | -44.61772 | 40858 ft | 481 kts | 102° |
| 2026-04-26 15:19 | 71.78777 | -44.40628 | 40853 ft | 481 kts | 102° |
| 2026-04-26 15:20 | 71.77655 | -44.19679 | 40855 ft | 481 kts | 103° |
| 2026-04-26 15:20 | 71.76503 | -43.98608 | 40862 ft | 482 kts | 103° |
| 2026-04-26 15:21 | 71.76071 | -43.90815 | 40862 ft | 482 kts | 103° |
| 2026-04-26 15:22 | 71.75498 | -43.80582 | 40862 ft | 482 kts | 103° |
| 2026-04-26 15:23 | 71.74313 | -43.59710 | 40884 ft | 478 kts | 103° |
| 2026-04-26 15:23 | 71.73095 | -43.38732 | 40849 ft | 480 kts | 103° |
| 2026-04-26 15:24 | 71.71855 | -43.17767 | 40856 ft | 482 kts | 104° |
| 2026-04-26 15:24 | 71.70588 | -42.96776 | 40868 ft | 484 kts | 104° |
| 2026-04-26 15:25 | 71.69512 | -42.79252 | 40881 ft | 485 kts | 104° |
| 2026-04-26 15:25 | 71.67975 | -42.54698 | 40898 ft | 487 kts | 105° |
| 2026-04-26 15:26 | 71.66626 | -42.33574 | 40901 ft | 488 kts | 105° |
| 2026-04-26 15:26 | 71.65255 | -42.12501 | 40912 ft | 488 kts | 105° |
| 2026-04-26 15:27 | 71.63859 | -41.91426 | 40889 ft | 487 kts | 105° |
| 2026-04-26 15:27 | 71.62445 | -41.70461 | 40893 ft | 487 kts | 105° |
| 2026-04-26 15:28 | 71.61004 | -41.49472 | 40892 ft | 486 kts | 106° |
| 2026-04-26 15:28 | 71.59546 | -41.28599 | 40886 ft | 485 kts | 106° |
| 2026-04-26 15:29 | 71.58079 | -41.07943 | 40883 ft | 484 kts | 106° |
| 2026-04-26 15:30 | 71.55057 | -40.66465 | 40879 ft | 483 kts | 107° |
| 2026-04-26 15:30 | 71.53516 | -40.45820 | 40857 ft | 482 kts | 107° |
| 2026-04-26 15:31 | 71.51161 | -40.14970 | 40881 ft | 481 kts | 109° |
| 2026-04-26 15:32 | 71.48650 | -39.88104 | 40863 ft | 480 kts | 112° |
| 2026-04-26 15:32 | 71.46034 | -39.65042 | 40867 ft | 479 kts | 114° |
| 2026-04-26 15:33 | 71.43798 | -39.45274 | 40869 ft | 480 kts | 114° |
| 2026-04-26 15:33 | 71.41550 | -39.25742 | 40875 ft | 479 kts | 115° |
| 2026-04-26 15:34 | 71.39258 | -39.06141 | 40896 ft | 480 kts | 115° |
| 2026-04-26 15:34 | 71.36935 | -38.86516 | 40906 ft | 480 kts | 115° |
| 2026-04-26 15:35 | 71.34595 | -38.66946 | 40908 ft | 481 kts | 115° |
| 2026-04-26 15:35 | 71.32230 | -38.47404 | 40939 ft | 481 kts | 115° |
| 2026-04-26 15:36 | 71.29860 | -38.28012 | 40942 ft | 481 kts | 116° |
| 2026-04-26 15:36 | 71.27449 | -38.08512 | 40936 ft | 481 kts | 116° |
| 2026-04-26 15:37 | 71.25025 | -37.89105 | 40952 ft | 481 kts | 116° |
| 2026-04-26 15:37 | 71.22577 | -37.69727 | 40960 ft | 481 kts | 116° |
| 2026-04-26 15:38 | 71.20110 | -37.50406 | 40962 ft | 481 kts | 116° |
| 2026-04-26 15:38 | 71.17626 | -37.31146 | 40961 ft | 481 kts | 117° |
| 2026-04-26 15:39 | 71.15138 | -37.12061 | 40976 ft | 481 kts | 117° |
| 2026-04-26 15:39 | 71.13042 | -36.96133 | 40975 ft | 481 kts | 117° |
| 2026-04-26 15:40 | 71.10078 | -36.73838 | 40983 ft | 480 kts | 117° |
| 2026-04-26 15:40 | 71.07518 | -36.54793 | 40992 ft | 480 kts | 117° |
| 2026-04-26 15:41 | 71.04962 | -36.35973 | 40990 ft | 479 kts | 117° |
| 2026-04-26 15:41 | 71.02371 | -36.17085 | 40980 ft | 479 kts | 118° |
| 2026-04-26 15:42 | 70.99681 | -35.98400 | 40984 ft | 477 kts | 121° |
| 2026-04-26 15:42 | 70.96557 | -35.80537 | 41001 ft | 474 kts | 124° |
| 2026-04-26 15:43 | 70.93360 | -35.62872 | 41000 ft | 474 kts | 124° |
| 2026-04-26 15:44 | 70.88581 | -35.36517 | 41002 ft | 474 kts | 124° |
| 2026-04-26 15:44 | 70.83742 | -35.10182 | 41049 ft | 475 kts | 124° |
| 2026-04-26 15:45 | 70.78857 | -34.83940 | 41075 ft | 475 kts | 124° |
| 2026-04-26 15:46 | 70.73952 | -34.57917 | 41072 ft | 475 kts | 125° |
| 2026-04-26 15:46 | 70.71201 | -34.43468 | 41094 ft | 476 kts | 125° |
| 2026-04-26 15:47 | 70.65646 | -34.14577 | 41122 ft | 476 kts | 125° |
| 2026-04-26 15:48 | 70.62297 | -33.97348 | 41138 ft | 476 kts | 126° |
| 2026-04-26 15:48 | 70.58947 | -33.80256 | 41142 ft | 476 kts | 126° |
| 2026-04-26 15:49 | 70.55565 | -33.63133 | 41133 ft | 475 kts | 126° |
| 2026-04-26 15:49 | 70.52176 | -33.46119 | 41136 ft | 475 kts | 126° |
| 2026-04-26 15:50 | 70.48763 | -33.29127 | 41173 ft | 475 kts | 126° |
| 2026-04-26 15:50 | 70.45363 | -33.12326 | 41175 ft | 475 kts | 126° |
| 2026-04-26 15:51 | 70.41922 | -32.95458 | 41175 ft | 476 kts | 127° |
| 2026-04-26 15:51 | 70.38466 | -32.78649 | 41182 ft | 476 kts | 127° |
| 2026-04-26 15:52 | 70.34993 | -32.61889 | 41177 ft | 476 kts | 127° |
| 2026-04-26 15:52 | 70.31493 | -32.45137 | 41215 ft | 477 kts | 127° |
| 2026-04-26 15:53 | 70.28005 | -32.28566 | 41222 ft | 477 kts | 127° |
| 2026-04-26 15:53 | 70.24469 | -32.11900 | 41241 ft | 478 kts | 127° |
| 2026-04-26 15:54 | 70.20918 | -31.95294 | 41240 ft | 479 kts | 128° |
| 2026-04-26 15:54 | 70.17348 | -31.78724 | 41247 ft | 479 kts | 128° |
| 2026-04-26 15:55 | 70.13758 | -31.62192 | 41253 ft | 478 kts | 128° |
| 2026-04-26 15:55 | 70.10154 | -31.45720 | 41290 ft | 479 kts | 128° |
| 2026-04-26 15:56 | 70.06560 | -31.29422 | 41295 ft | 479 kts | 128° |
| 2026-04-26 15:56 | 70.02923 | -31.13048 | 41296 ft | 479 kts | 128° |
| 2026-04-26 15:57 | 69.99196 | -30.96928 | 41297 ft | 477 kts | 131° |
| 2026-04-26 15:57 | 69.95134 | -30.81805 | 41248 ft | 475 kts | 134° |
| 2026-04-26 15:58 | 69.91018 | -30.66810 | 41297 ft | 474 kts | 133° |
| 2026-04-26 15:58 | 69.86907 | -30.51707 | 41270 ft | 475 kts | 133° |
| 2026-04-26 15:59 | 69.82804 | -30.36696 | 41272 ft | 475 kts | 133° |
| 2026-04-26 15:59 | 69.79375 | -30.24266 | 41240 ft | 475 kts | 134° |
| 2026-04-26 16:00 | 69.75229 | -30.09354 | 41242 ft | 475 kts | 134° |
| 2026-04-26 16:00 | 69.71098 | -29.94608 | 41207 ft | 475 kts | 134° |
| 2026-04-26 16:01 | 69.66930 | -29.79827 | 41218 ft | 475 kts | 134° |
| 2026-04-26 16:01 | 69.62754 | -29.65122 | 41233 ft | 475 kts | 134° |
| 2026-04-26 16:02 | 69.58560 | -29.50452 | 41233 ft | 475 kts | 134° |
| 2026-04-26 16:02 | 69.54371 | -29.35902 | 41234 ft | 475 kts | 134° |
| 2026-04-26 16:03 | 69.50148 | -29.21334 | 41225 ft | 475 kts | 134° |
| 2026-04-26 16:03 | 69.45928 | -29.06872 | 41225 ft | 474 kts | 134° |
| 2026-04-26 16:04 | 69.41704 | -28.92496 | 41212 ft | 474 kts | 135° |
| 2026-04-26 16:04 | 69.37463 | -28.78159 | 41235 ft | 473 kts | 135° |
| 2026-04-26 16:05 | 69.33221 | -28.63915 | 41215 ft | 473 kts | 135° |
| 2026-04-26 16:05 | 69.28966 | -28.49722 | 41214 ft | 473 kts | 135° |
| 2026-04-26 16:06 | 69.24723 | -28.35658 | 41174 ft | 473 kts | 135° |
| 2026-04-26 16:06 | 69.20450 | -28.21592 | 41193 ft | 473 kts | 135° |
| 2026-04-26 16:07 | 69.16161 | -28.07570 | 41199 ft | 473 kts | 135° |
| 2026-04-26 16:07 | 69.11852 | -27.93573 | 41200 ft | 474 kts | 135° |
| 2026-04-26 16:08 | 69.07548 | -27.79681 | 41236 ft | 475 kts | 135° |
| 2026-04-26 16:08 | 69.03198 | -27.65732 | 41233 ft | 475 kts | 136° |
| 2026-04-26 16:09 | 68.98847 | -27.51871 | 41242 ft | 475 kts | 136° |
| 2026-04-26 16:09 | 68.94471 | -27.38021 | 41222 ft | 475 kts | 136° |
| 2026-04-26 16:10 | 68.90130 | -27.24372 | 41229 ft | 474 kts | 136° |
| 2026-04-26 16:10 | 68.85743 | -27.10666 | 41217 ft | 474 kts | 136° |
| 2026-04-26 16:11 | 68.81355 | -26.97049 | 41238 ft | 474 kts | 136° |
| 2026-04-26 16:11 | 68.76963 | -26.83505 | 41238 ft | 474 kts | 136° |
| 2026-04-26 16:12 | 68.72552 | -26.69990 | 41234 ft | 473 kts | 136° |
| 2026-04-26 16:12 | 68.65923 | -26.49836 | 41228 ft | 473 kts | 136° |
| 2026-04-26 16:13 | 68.61526 | -26.36575 | 41225 ft | 472 kts | 137° |
| 2026-04-26 16:13 | 68.57096 | -26.23298 | 41215 ft | 472 kts | 137° |
| 2026-04-26 16:14 | 68.52656 | -26.10076 | 41220 ft | 472 kts | 137° |
| 2026-04-26 16:15 | 68.45995 | -25.90380 | 41199 ft | 470 kts | 139° |
| 2026-04-26 16:15 | 68.41540 | -25.77330 | 41203 ft | 471 kts | 139° |
| 2026-04-26 16:16 | 68.34860 | -25.57960 | 41184 ft | 471 kts | 137° |
| 2026-04-26 16:16 | 68.30383 | -25.45017 | 41185 ft | 471 kts | 137° |
| 2026-04-26 16:17 | 68.25891 | -25.32090 | 41166 ft | 471 kts | 137° |
| 2026-04-26 16:17 | 68.21387 | -25.19233 | 41187 ft | 472 kts | 138° |
| 2026-04-26 16:18 | 68.14603 | -24.99973 | 41152 ft | 473 kts | 139° |
| 2026-04-26 16:19 | 68.07800 | -24.80960 | 41169 ft | 473 kts | 138° |
| 2026-04-26 16:20 | 68.00944 | -24.61924 | 41130 ft | 473 kts | 138° |
| 2026-04-26 16:20 | 67.94078 | -24.42988 | 41128 ft | 473 kts | 138° |
| 2026-04-26 16:21 | 67.89494 | -24.30408 | 41125 ft | 473 kts | 138° |
| 2026-04-26 16:21 | 67.84903 | -24.17854 | 41103 ft | 474 kts | 137° |
| 2026-04-26 16:22 | 67.80316 | -24.05455 | 41101 ft | 474 kts | 140° |
| 2026-04-26 16:22 | 67.75653 | -23.93070 | 41087 ft | 474 kts | 139° |
| 2026-04-26 16:23 | 67.71011 | -23.80732 | 41089 ft | 475 kts | 139° |
| 2026-04-26 16:23 | 67.66351 | -23.68371 | 41083 ft | 476 kts | 139° |
| 2026-04-26 16:24 | 67.61701 | -23.56121 | 41085 ft | 476 kts | 140° |
| 2026-04-26 16:24 | 67.57014 | -23.43815 | 41066 ft | 477 kts | 140° |
| 2026-04-26 16:25 | 67.52312 | -23.31571 | 41064 ft | 477 kts | 140° |
| 2026-04-26 16:25 | 67.47596 | -23.19364 | 41067 ft | 476 kts | 140° |
| 2026-04-26 16:26 | 67.43673 | -23.09257 | 41054 ft | 476 kts | 140° |
| 2026-04-26 16:26 | 67.38155 | -22.95127 | 41057 ft | 476 kts | 140° |
| 2026-04-26 16:27 | 67.33459 | -22.83178 | 41044 ft | 476 kts | 140° |
| 2026-04-26 16:27 | 67.28718 | -22.71185 | 41041 ft | 476 kts | 140° |
| 2026-04-26 16:28 | 67.23975 | -22.59260 | 41027 ft | 474 kts | 140° |
| 2026-04-26 16:28 | 67.19239 | -22.47416 | 41026 ft | 473 kts | 140° |
| 2026-04-26 16:29 | 67.14506 | -22.35646 | 41007 ft | 473 kts | 140° |
| 2026-04-26 16:29 | 67.09801 | -22.23998 | 41007 ft | 473 kts | 140° |
| 2026-04-26 16:30 | 67.05059 | -22.12304 | 40996 ft | 472 kts | 140° |
| 2026-04-26 16:30 | 67.00314 | -22.00633 | 40971 ft | 472 kts | 139° |
| 2026-04-26 16:31 | 66.95643 | -21.88782 | 40996 ft | 473 kts | 139° |
| 2026-04-26 16:31 | 66.91038 | -21.76894 | 41001 ft | 474 kts | 138° |
| 2026-04-26 16:32 | 66.87152 | -21.66877 | 41005 ft | 474 kts | 139° |
| 2026-04-26 16:32 | 66.81750 | -21.53076 | 41007 ft | 474 kts | 139° |
| 2026-04-26 16:33 | 66.77073 | -21.41219 | 41008 ft | 474 kts | 139° |
| 2026-04-26 16:33 | 66.72399 | -21.29441 | 40994 ft | 474 kts | 139° |
| 2026-04-26 16:34 | 66.67722 | -21.17716 | 40991 ft | 474 kts | 139° |
| 2026-04-26 16:34 | 66.63020 | -21.05997 | 40991 ft | 474 kts | 139° |
| 2026-04-26 16:35 | 66.58348 | -20.94419 | 40994 ft | 474 kts | 139° |
| 2026-04-26 16:35 | 66.53645 | -20.82827 | 40997 ft | 474 kts | 139° |
| 2026-04-26 16:36 | 66.48928 | -20.71267 | 40997 ft | 474 kts | 139° |
| 2026-04-26 16:36 | 66.44196 | -20.59734 | 40995 ft | 474 kts | 139° |
| 2026-04-26 16:37 | 66.39461 | -20.48259 | 40993 ft | 474 kts | 139° |
| 2026-04-26 16:37 | 66.35522 | -20.38762 | 40994 ft | 474 kts | 139° |
| 2026-04-26 16:38 | 66.29991 | -20.25499 | 41005 ft | 475 kts | 140° |
| 2026-04-26 16:38 | 66.25219 | -20.14123 | 41009 ft | 476 kts | 140° |
| 2026-04-26 16:39 | 66.20437 | -20.02787 | 41002 ft | 475 kts | 140° |
| 2026-04-26 16:39 | 66.15655 | -19.91513 | 41001 ft | 475 kts | 140° |
| 2026-04-26 16:40 | 66.10861 | -19.80273 | 40999 ft | 474 kts | 140° |
| 2026-04-26 16:40 | 66.06058 | -19.69073 | 40997 ft | 474 kts | 140° |
| 2026-04-26 16:41 | 66.01291 | -19.58018 | 40995 ft | 474 kts | 140° |
| 2026-04-26 16:41 | 65.96480 | -19.46922 | 40989 ft | 473 kts | 140° |
| 2026-04-26 16:42 | 65.91707 | -19.35973 | 40985 ft | 473 kts | 140° |
| 2026-04-26 16:42 | 65.86897 | -19.24996 | 40989 ft | 472 kts | 140° |
| 2026-04-26 16:43 | 65.82068 | -19.14037 | 40986 ft | 473 kts | 140° |
| 2026-04-26 16:43 | 65.77238 | -19.03131 | 40988 ft | 473 kts | 140° |
| 2026-04-26 16:44 | 65.72428 | -18.92332 | 40997 ft | 473 kts | 140° |
| 2026-04-26 16:44 | 65.67583 | -18.81510 | 40985 ft | 473 kts | 140° |
| 2026-04-26 16:45 | 65.62728 | -18.70724 | 40989 ft | 474 kts | 140° |
| 2026-04-26 16:45 | 65.57854 | -18.59953 | 40992 ft | 474 kts | 140° |
| 2026-04-26 16:46 | 65.52967 | -18.49208 | 40995 ft | 475 kts | 141° |
| 2026-04-26 16:46 | 65.48069 | -18.38501 | 41017 ft | 475 kts | 141° |
| 2026-04-26 16:47 | 65.43164 | -18.27826 | 40997 ft | 476 kts | 141° |
| 2026-04-26 16:47 | 65.38280 | -18.17227 | 41005 ft | 476 kts | 140° |
| 2026-04-26 16:48 | 65.33443 | -18.06339 | 41008 ft | 477 kts | 139° |
| 2026-04-26 16:48 | 65.29446 | -17.97239 | 41017 ft | 477 kts | 139° |
| 2026-04-26 16:49 | 65.24605 | -17.86314 | 41028 ft | 477 kts | 139° |
| 2026-04-26 16:49 | 65.19762 | -17.75488 | 41011 ft | 477 kts | 140° |
| 2026-04-26 16:50 | 65.14909 | -17.64706 | 41024 ft | 477 kts | 140° |
| 2026-04-26 16:50 | 65.10073 | -17.54019 | 41021 ft | 477 kts | 140° |
| 2026-04-26 16:51 | 65.05211 | -17.43331 | 41026 ft | 477 kts | 140° |
| 2026-04-26 16:51 | 65.00330 | -17.32655 | 41025 ft | 477 kts | 140° |
| 2026-04-26 16:52 | 64.96270 | -17.23818 | 41026 ft | 477 kts | 140° |
| 2026-04-26 16:52 | 64.90558 | -17.11448 | 41010 ft | 477 kts | 140° |
| 2026-04-26 16:53 | 64.85688 | -17.00962 | 41022 ft | 477 kts | 140° |
| 2026-04-26 16:53 | 64.80791 | -16.90470 | 41021 ft | 477 kts | 140° |
| 2026-04-26 16:54 | 64.75863 | -16.79967 | 41025 ft | 478 kts | 140° |
| 2026-04-26 16:54 | 64.70936 | -16.69521 | 41029 ft | 478 kts | 140° |
| 2026-04-26 16:55 | 64.65983 | -16.59071 | 41033 ft | 479 kts | 140° |
| 2026-04-26 16:55 | 64.61033 | -16.48682 | 41038 ft | 479 kts | 140° |
| 2026-04-26 16:56 | 64.53604 | -16.33190 | 41048 ft | 480 kts | 141° |
| 2026-04-26 16:57 | 64.48623 | -16.22869 | 41053 ft | 480 kts | 140° |
| 2026-04-26 16:57 | 64.41116 | -16.07414 | 41054 ft | 480 kts | 141° |
| 2026-04-26 16:58 | 64.36963 | -15.98912 | 41064 ft | 480 kts | 141° |
| 2026-04-26 16:59 | 64.28636 | -15.81975 | 41067 ft | 480 kts | 141° |
| 2026-04-26 17:00 | 64.18594 | -15.61737 | 41069 ft | 479 kts | 141° |
| 2026-04-26 17:00 | 64.11054 | -15.46676 | 41062 ft | 479 kts | 141° |
| 2026-04-26 17:01 | 64.06051 | -15.36743 | 41058 ft | 479 kts | 141° |
| 2026-04-26 17:01 | 64.01006 | -15.26776 | 41055 ft | 479 kts | 141° |
| 2026-04-26 17:02 | 63.95954 | -15.16846 | 41050 ft | 479 kts | 141° |
| 2026-04-26 17:02 | 63.90894 | -15.06949 | 41045 ft | 479 kts | 141° |
| 2026-04-26 17:03 | 63.85822 | -14.97078 | 41045 ft | 479 kts | 141° |
| 2026-04-26 17:03 | 63.80752 | -14.87257 | 41046 ft | 480 kts | 141° |
| 2026-04-26 17:04 | 63.75700 | -14.77520 | 41049 ft | 480 kts | 142° |
| 2026-04-26 17:04 | 63.70603 | -14.67744 | 41044 ft | 480 kts | 142° |
| 2026-04-26 17:05 | 63.65504 | -14.58013 | 41046 ft | 480 kts | 142° |
| 2026-04-26 17:05 | 63.60434 | -14.48384 | 41038 ft | 480 kts | 142° |
| 2026-04-26 17:06 | 63.55329 | -14.38735 | 41039 ft | 480 kts | 142° |
| 2026-04-26 17:06 | 63.50216 | -14.29118 | 41032 ft | 480 kts | 142° |
| 2026-04-26 17:07 | 63.45099 | -14.19530 | 41040 ft | 480 kts | 142° |
| 2026-04-26 17:07 | 63.39955 | -14.09981 | 41037 ft | 479 kts | 143° |
| 2026-04-26 17:08 | 63.34719 | -14.00794 | 41025 ft | 480 kts | 143° |
| 2026-04-26 17:08 | 63.29478 | -13.91564 | 41035 ft | 480 kts | 143° |
| 2026-04-26 17:09 | 63.25116 | -13.83905 | 41039 ft | 481 kts | 143° |
| 2026-04-26 17:09 | 63.19001 | -13.73237 | 41042 ft | 481 kts | 144° |
| 2026-04-26 17:10 | 63.13730 | -13.64095 | 41047 ft | 481 kts | 144° |
| 2026-04-26 17:10 | 63.08458 | -13.54995 | 41034 ft | 480 kts | 144° |
| 2026-04-26 17:11 | 63.03186 | -13.45937 | 41035 ft | 480 kts | 144° |
| 2026-04-26 17:11 | 62.97915 | -13.36924 | 41033 ft | 479 kts | 144° |
| 2026-04-26 17:12 | 62.90030 | -13.23519 | 41031 ft | 479 kts | 144° |
| 2026-04-26 17:13 | 62.82099 | -13.10131 | 41024 ft | 480 kts | 144° |
| 2026-04-26 17:14 | 62.74161 | -12.96823 | 41030 ft | 479 kts | 144° |
| 2026-04-26 17:14 | 62.66196 | -12.83563 | 41030 ft | 479 kts | 144° |
| 2026-04-26 17:15 | 62.58268 | -12.70456 | 41034 ft | 479 kts | 144° |
| 2026-04-26 17:16 | 62.52954 | -12.61721 | 41032 ft | 479 kts | 144° |
| 2026-04-26 17:16 | 62.47624 | -12.53000 | 41060 ft | 480 kts | 144° |
| 2026-04-26 17:17 | 62.42299 | -12.44327 | 41065 ft | 483 kts | 145° |
| 2026-04-26 17:17 | 62.36910 | -12.35589 | 41073 ft | 485 kts | 145° |
| 2026-04-26 17:18 | 62.31524 | -12.26895 | 41076 ft | 483 kts | 145° |
| 2026-04-26 17:18 | 62.26147 | -12.18256 | 41062 ft | 482 kts | 145° |
| 2026-04-26 17:19 | 62.18130 | -12.05452 | 41051 ft | 470 kts | 145° |
| 2026-04-26 17:19 | 62.12747 | -11.97696 | 41053 ft | 466 kts | 149° |
| 2026-04-26 17:20 | 62.09130 | -11.92723 | 41055 ft | 468 kts | 149° |
| 2026-04-26 17:20 | 62.01902 | -11.82449 | 41046 ft | 468 kts | 148° |
| 2026-04-26 17:21 | 61.96477 | -11.74660 | 41058 ft | 469 kts | 148° |
| 2026-04-26 17:21 | 61.91053 | -11.66905 | 41063 ft | 470 kts | 148° |
| 2026-04-26 17:22 | 61.85628 | -11.59183 | 41068 ft | 470 kts | 148° |
| 2026-04-26 17:22 | 61.80218 | -11.51527 | 41071 ft | 470 kts | 148° |
| 2026-04-26 17:23 | 61.74766 | -11.43853 | 41069 ft | 470 kts | 148° |
| 2026-04-26 17:23 | 61.69315 | -11.36216 | 41075 ft | 470 kts | 148° |
| 2026-04-26 17:24 | 61.63862 | -11.28608 | 41074 ft | 470 kts | 148° |
| 2026-04-26 17:24 | 61.58411 | -11.21037 | 41078 ft | 470 kts | 148° |
| 2026-04-26 17:25 | 61.52937 | -11.13465 | 41076 ft | 470 kts | 148° |
| 2026-04-26 17:25 | 61.47475 | -11.05942 | 41076 ft | 469 kts | 149° |
| 2026-04-26 17:26 | 61.42050 | -10.98502 | 41069 ft | 469 kts | 149° |
| 2026-04-26 17:26 | 61.36590 | -10.91046 | 41068 ft | 469 kts | 149° |
| 2026-04-26 17:27 | 61.31106 | -10.83590 | 41068 ft | 469 kts | 149° |
| 2026-04-26 17:27 | 61.25637 | -10.76184 | 41072 ft | 469 kts | 149° |
| 2026-04-26 17:28 | 61.20179 | -10.68825 | 41073 ft | 469 kts | 149° |
| 2026-04-26 17:28 | 61.14695 | -10.61461 | 41076 ft | 470 kts | 149° |
| 2026-04-26 17:29 | 61.11022 | -10.56546 | 41081 ft | 470 kts | 149° |
| 2026-04-26 17:29 | 61.03706 | -10.46798 | 41087 ft | 470 kts | 149° |
| 2026-04-26 17:30 | 60.98221 | -10.39526 | 41092 ft | 470 kts | 149° |
| 2026-04-26 17:30 | 60.92700 | -10.32235 | 41085 ft | 471 kts | 149° |
| 2026-04-26 17:31 | 60.87188 | -10.24987 | 41091 ft | 471 kts | 150° |
| 2026-04-26 17:31 | 60.81662 | -10.17751 | 41092 ft | 471 kts | 150° |
| 2026-04-26 17:32 | 60.76134 | -10.10542 | 41097 ft | 471 kts | 150° |
| 2026-04-26 17:32 | 60.70630 | -10.03395 | 41102 ft | 471 kts | 150° |
| 2026-04-26 17:33 | 60.65090 | -9.96229 | 41093 ft | 471 kts | 150° |
| 2026-04-26 17:34 | 60.56778 | -9.85536 | 41097 ft | 471 kts | 150° |
| 2026-04-26 17:34 | 60.52155 | -9.79616 | 41097 ft | 471 kts | 150° |
| 2026-04-26 17:35 | 60.46610 | -9.72542 | 41101 ft | 471 kts | 150° |
| 2026-04-26 17:35 | 60.41061 | -9.65492 | 41103 ft | 471 kts | 150° |
| 2026-04-26 17:36 | 60.35499 | -9.58453 | 41104 ft | 471 kts | 150° |
| 2026-04-26 17:36 | 60.29967 | -9.51484 | 41102 ft | 471 kts | 150° |
| 2026-04-26 17:37 | 60.24393 | -9.44488 | 41111 ft | 471 kts | 151° |
| 2026-04-26 17:37 | 60.18818 | -9.37519 | 41113 ft | 472 kts | 151° |
| 2026-04-26 17:38 | 60.10443 | -9.27103 | 41122 ft | 472 kts | 151° |
| 2026-04-26 17:38 | 60.04855 | -9.20188 | 41118 ft | 472 kts | 151° |
| 2026-04-26 17:39 | 59.99295 | -9.13337 | 41120 ft | 472 kts | 151° |
| 2026-04-26 17:39 | 59.93697 | -9.06465 | 41125 ft | 472 kts | 151° |
| 2026-04-26 17:40 | 59.89041 | -9.00771 | 41122 ft | 472 kts | 151° |
| 2026-04-26 17:40 | 59.82497 | -8.92799 | 41125 ft | 472 kts | 151° |
| 2026-04-26 17:41 | 59.76887 | -8.85995 | 41127 ft | 473 kts | 152° |
| 2026-04-26 17:41 | 59.71311 | -8.79260 | 41137 ft | 472 kts | 152° |
| 2026-04-26 17:42 | 59.65693 | -8.72499 | 41132 ft | 472 kts | 152° |
| 2026-04-26 17:42 | 59.60061 | -8.65749 | 41139 ft | 472 kts | 152° |
| 2026-04-26 17:43 | 59.54471 | -8.59075 | 41136 ft | 472 kts | 152° |
| 2026-04-26 17:43 | 59.48835 | -8.52375 | 41140 ft | 472 kts | 152° |
| 2026-04-26 17:44 | 59.43203 | -8.45705 | 41145 ft | 473 kts | 152° |
| 2026-04-26 17:44 | 59.37569 | -8.39058 | 41151 ft | 473 kts | 152° |
| 2026-04-26 17:45 | 59.31960 | -8.32465 | 41142 ft | 472 kts | 152° |
| 2026-04-26 17:45 | 59.26318 | -8.25861 | 41152 ft | 472 kts | 152° |
| 2026-04-26 17:46 | 59.20666 | -8.19271 | 41157 ft | 473 kts | 152° |
| 2026-04-26 17:46 | 59.15012 | -8.12704 | 41157 ft | 473 kts | 152° |
| 2026-04-26 17:47 | 59.10309 | -8.07261 | 41160 ft | 473 kts | 152° |
| 2026-04-26 17:47 | 59.03694 | -7.99634 | 41156 ft | 472 kts | 153° |
| 2026-04-26 17:48 | 58.98072 | -7.93180 | 41165 ft | 472 kts | 153° |
| 2026-04-26 17:48 | 58.92410 | -7.86706 | 41169 ft | 472 kts | 153° |
| 2026-04-26 17:49 | 58.86745 | -7.80251 | 41172 ft | 473 kts | 153° |
| 2026-04-26 17:49 | 58.81059 | -7.73799 | 41173 ft | 473 kts | 153° |
| 2026-04-26 17:50 | 58.75395 | -7.67395 | 41175 ft | 473 kts | 153° |
| 2026-04-26 17:50 | 58.69713 | -7.60996 | 41177 ft | 473 kts | 153° |
| 2026-04-26 17:51 | 58.64059 | -7.54653 | 41180 ft | 473 kts | 153° |
| 2026-04-26 17:51 | 58.58363 | -7.48287 | 41196 ft | 473 kts | 153° |
| 2026-04-26 17:52 | 58.52665 | -7.41943 | 41196 ft | 473 kts | 153° |
| 2026-04-26 17:52 | 58.46957 | -7.35611 | 41201 ft | 473 kts | 153° |
| 2026-04-26 17:53 | 58.41292 | -7.29350 | 41201 ft | 473 kts | 153° |
| 2026-04-26 17:54 | 58.32731 | -7.19935 | 41206 ft | 473 kts | 153° |
| 2026-04-26 17:54 | 58.27028 | -7.13692 | 41192 ft | 473 kts | 153° |
| 2026-04-26 17:55 | 58.21324 | -7.07472 | 41208 ft | 472 kts | 153° |
| 2026-04-26 17:55 | 58.15623 | -7.01278 | 41212 ft | 473 kts | 153° |
| 2026-04-26 17:56 | 58.09911 | -6.95095 | 41212 ft | 472 kts | 154° |
| 2026-04-26 17:57 | 57.98507 | -6.82819 | 41220 ft | 472 kts | 154° |
| 2026-04-26 17:57 | 57.92794 | -6.76703 | 41217 ft | 472 kts | 154° |
| 2026-04-26 17:58 | 57.81397 | -6.64571 | 41223 ft | 472 kts | 154° |
| 2026-04-26 17:59 | 57.72817 | -6.55494 | 41227 ft | 471 kts | 154° |
| 2026-04-26 17:59 | 57.67107 | -6.49482 | 41228 ft | 471 kts | 154° |
| 2026-04-26 18:00 | 57.61425 | -6.43522 | 41231 ft | 471 kts | 154° |
| 2026-04-26 18:00 | 57.55716 | -6.37555 | 41237 ft | 471 kts | 154° |
| 2026-04-26 18:01 | 57.49991 | -6.31592 | 41236 ft | 471 kts | 154° |
| 2026-04-26 18:01 | 57.44266 | -6.25651 | 41247 ft | 471 kts | 154° |
| 2026-04-26 18:02 | 57.39500 | -6.20721 | 41248 ft | 472 kts | 154° |
| 2026-04-26 18:02 | 57.32801 | -6.13818 | 41258 ft | 472 kts | 154° |
| 2026-04-26 18:03 | 57.27087 | -6.07951 | 41254 ft | 472 kts | 154° |
| 2026-04-26 18:03 | 57.21338 | -6.02071 | 41249 ft | 471 kts | 155° |
| 2026-04-26 18:04 | 57.15600 | -5.96224 | 41259 ft | 472 kts | 155° |
| 2026-04-26 18:05 | 57.06970 | -5.87466 | 41263 ft | 472 kts | 155° |
| 2026-04-26 18:05 | 57.01238 | -5.81676 | 41267 ft | 471 kts | 155° |
| 2026-04-26 18:06 | 56.95493 | -5.75894 | 41265 ft | 471 kts | 155° |
| 2026-04-26 18:06 | 56.89732 | -5.70115 | 41269 ft | 471 kts | 155° |
| 2026-04-26 18:07 | 56.83987 | -5.64373 | 41268 ft | 471 kts | 155° |
| 2026-04-26 18:07 | 56.78250 | -5.58659 | 41262 ft | 471 kts | 155° |
| 2026-04-26 18:08 | 56.72461 | -5.52914 | 41267 ft | 471 kts | 155° |
| 2026-04-26 18:08 | 56.66681 | -5.47198 | 41267 ft | 471 kts | 155° |
| 2026-04-26 18:09 | 56.60965 | -5.41564 | 41261 ft | 471 kts | 155° |
| 2026-04-26 18:09 | 56.55193 | -5.35897 | 41262 ft | 471 kts | 155° |
| 2026-04-26 18:10 | 56.49433 | -5.30260 | 41260 ft | 471 kts | 155° |
| 2026-04-26 18:10 | 56.43674 | -5.24644 | 41269 ft | 470 kts | 155° |
| 2026-04-26 18:11 | 56.37908 | -5.19040 | 41268 ft | 470 kts | 155° |
| 2026-04-26 18:11 | 56.32141 | -5.13455 | 41266 ft | 470 kts | 155° |
| 2026-04-26 18:12 | 56.26426 | -5.07938 | 41248 ft | 469 kts | 155° |
| 2026-04-26 18:12 | 56.20669 | -5.02396 | 41242 ft | 469 kts | 155° |
| 2026-04-26 18:13 | 56.14903 | -4.96860 | 41254 ft | 469 kts | 155° |
| 2026-04-26 18:13 | 56.09139 | -4.91343 | 41254 ft | 469 kts | 155° |
| 2026-04-26 18:14 | 56.03413 | -4.85881 | 41256 ft | 469 kts | 155° |
| 2026-04-26 18:14 | 55.97652 | -4.80404 | 41252 ft | 468 kts | 155° |
| 2026-04-26 18:15 | 55.91810 | -4.75455 | 41249 ft | 461 kts | 167° |
| 2026-04-26 18:15 | 55.88699 | -4.74178 | 41247 ft | 456 kts | 178° |
| 2026-04-26 18:15 | 55.85557 | -4.73963 | 41251 ft | 450 kts | 188° |
| 2026-04-26 18:15 | 55.82482 | -4.74781 | 41249 ft | 444 kts | 199° |
| 2026-04-26 18:16 | 55.79573 | -4.76557 | 41252 ft | 439 kts | 208° |
| 2026-04-26 18:16 | 55.74596 | -4.82550 | 41251 ft | 430 kts | 228° |
| 2026-04-26 18:16 | 55.72632 | -4.86572 | 41251 ft | 427 kts | 237° |
| 2026-04-26 18:17 | 55.70045 | -4.95858 | 41258 ft | 423 kts | 255° |
| 2026-04-26 18:17 | 55.69336 | -5.06209 | 41254 ft | 422 kts | 273° |
| 2026-04-26 18:18 | 55.70588 | -5.16292 | 41263 ft | 425 kts | 291° |
| 2026-04-26 18:18 | 55.73710 | -5.25219 | 41263 ft | 430 kts | 310° |
| 2026-04-26 18:19 | 55.78376 | -5.31960 | 41261 ft | 436 kts | 323° |
| 2026-04-26 18:19 | 55.83411 | -5.38022 | 41260 ft | 436 kts | 322° |
| 2026-04-26 18:20 | 55.88412 | -5.44102 | 41268 ft | 435 kts | 322° |
| 2026-04-26 18:20 | 55.91735 | -5.48141 | 41269 ft | 435 kts | 322° |
| 2026-04-26 18:21 | 55.96063 | -5.52874 | 41268 ft | 440 kts | 333° |
| 2026-04-26 18:21 | 55.98927 | -5.54698 | 41263 ft | 445 kts | 342° |
| 2026-04-26 18:21 | 56.05155 | -5.55489 | 41265 ft | 457 kts | 4° |
| 2026-04-26 18:22 | 56.11271 | -5.52106 | 41269 ft | 468 kts | 25° |
| 2026-04-26 18:22 | 56.14002 | -5.48879 | 41270 ft | 474 kts | 37° |
| 2026-04-26 18:22 | 56.15645 | -5.46168 | 41264 ft | 477 kts | 45° |
| 2026-04-26 18:23 | 56.17676 | -5.41531 | 41260 ft | 481 kts | 56° |
| 2026-04-26 18:23 | 56.19203 | -5.36164 | 41271 ft | 484 kts | 68° |
| 2026-04-26 18:23 | 56.20116 | -5.30372 | 41267 ft | 487 kts | 80° |
| 2026-04-26 18:23 | 56.20384 | -5.24293 | 41259 ft | 487 kts | 92° |
| 2026-04-26 18:24 | 56.19986 | -5.18276 | 41263 ft | 486 kts | 104° |
| 2026-04-26 18:24 | 56.18938 | -5.12514 | 41254 ft | 483 kts | 117° |
| 2026-04-26 18:24 | 56.17302 | -5.07284 | 41259 ft | 479 kts | 128° |
| 2026-04-26 18:24 | 56.15156 | -5.02764 | 41257 ft | 475 kts | 140° |
| 2026-04-26 18:25 | 56.09837 | -4.95810 | 41251 ft | 471 kts | 150° |
| 2026-04-26 18:25 | 56.04268 | -4.89655 | 41251 ft | 470 kts | 152° |
| 2026-04-26 18:26 | 55.98683 | -4.83552 | 41253 ft | 470 kts | 152° |
| 2026-04-26 18:26 | 55.93113 | -4.77417 | 41250 ft | 470 kts | 152° |
| 2026-04-26 18:27 | 55.87581 | -4.71324 | 41245 ft | 470 kts | 152° |
| 2026-04-26 18:27 | 55.82015 | -4.65217 | 41261 ft | 470 kts | 152° |
| 2026-04-26 18:28 | 55.76433 | -4.59112 | 41261 ft | 470 kts | 152° |
| 2026-04-26 18:28 | 55.70838 | -4.53015 | 41261 ft | 471 kts | 152° |
| 2026-04-26 18:29 | 55.65261 | -4.46974 | 41266 ft | 469 kts | 153° |
| 2026-04-26 18:29 | 55.59540 | -4.41629 | 41261 ft | 467 kts | 157° |
| 2026-04-26 18:30 | 55.53730 | -4.36417 | 41267 ft | 468 kts | 156° |
| 2026-04-26 18:30 | 55.47919 | -4.31190 | 41269 ft | 468 kts | 156° |
| 2026-04-26 18:31 | 55.42113 | -4.25977 | 41273 ft | 467 kts | 156° |
| 2026-04-26 18:31 | 55.36326 | -4.20778 | 41265 ft | 468 kts | 155° |
| 2026-04-26 18:32 | 55.30604 | -4.15264 | 41254 ft | 466 kts | 154° |
| 2026-04-26 18:32 | 55.25019 | -4.09844 | 41245 ft | 459 kts | 155° |
| 2026-04-26 18:33 | 55.19411 | -4.04477 | 41240 ft | 461 kts | 155° |
| 2026-04-26 18:33 | 55.13767 | -3.99107 | 41251 ft | 461 kts | 155° |
| 2026-04-26 18:34 | 55.08129 | -3.93759 | 41252 ft | 461 kts | 155° |
| 2026-04-26 18:34 | 55.02495 | -3.88431 | 41252 ft | 461 kts | 155° |
| 2026-04-26 18:35 | 54.96857 | -3.83117 | 41256 ft | 461 kts | 155° |
| 2026-04-26 18:35 | 54.91209 | -3.77811 | 41256 ft | 460 kts | 155° |
| 2026-04-26 18:36 | 54.85639 | -3.72456 | 41257 ft | 461 kts | 153° |
| 2026-04-26 18:36 | 54.80120 | -3.66773 | 41256 ft | 461 kts | 153° |
| 2026-04-26 18:37 | 54.74594 | -3.61130 | 41253 ft | 461 kts | 153° |
| 2026-04-26 18:37 | 54.69078 | -3.55562 | 41244 ft | 465 kts | 153° |
| 2026-04-26 18:38 | 54.63552 | -3.50006 | 41089 ft | 457 kts | 153° |
| 2026-04-26 18:38 | 54.60809 | -3.47254 | 40682 ft | 455 kts | 153° |
| 2026-04-26 18:38 | 54.58066 | -3.44509 | 40203 ft | 455 kts | 154° |
| 2026-04-26 18:39 | 54.55306 | -3.41752 | 39591 ft | 459 kts | 154° |
| 2026-04-26 18:39 | 54.52527 | -3.38982 | 38900 ft | 464 kts | 154° |
| 2026-04-26 18:39 | 54.49711 | -3.36179 | 38074 ft | 469 kts | 154° |
| 2026-04-26 18:39 | 54.46913 | -3.33394 | 37397 ft | 470 kts | 154° |
| 2026-04-26 18:40 | 54.44069 | -3.30569 | 36700 ft | 471 kts | 155° |
| 2026-04-26 18:40 | 54.41239 | -3.27761 | 36025 ft | 472 kts | 155° |
| 2026-04-26 18:40 | 54.38387 | -3.24938 | 35264 ft | 473 kts | 155° |
| 2026-04-26 18:40 | 54.35524 | -3.22109 | 34484 ft | 475 kts | 155° |
| 2026-04-26 18:41 | 54.32646 | -3.19271 | 33637 ft | 479 kts | 155° |
| 2026-04-26 18:41 | 54.29700 | -3.16379 | 33329 ft | 495 kts | 155° |
| 2026-04-26 18:41 | 54.26666 | -3.13404 | 33261 ft | 508 kts | 155° |
| 2026-04-26 18:41 | 54.23578 | -3.10374 | 33261 ft | 512 kts | 155° |
| 2026-04-26 18:42 | 54.17425 | -3.04336 | 33263 ft | 512 kts | 155° |
| 2026-04-26 18:42 | 54.11242 | -2.98296 | 33264 ft | 512 kts | 155° |
| 2026-04-26 18:43 | 54.05079 | -2.92302 | 33228 ft | 509 kts | 155° |
| 2026-04-26 18:43 | 54.02050 | -2.89358 | 33102 ft | 496 kts | 155° |
| 2026-04-26 18:43 | 53.99110 | -2.86504 | 32745 ft | 486 kts | 155° |
| 2026-04-26 18:44 | 53.96142 | -2.83635 | 31902 ft | 484 kts | 155° |
| 2026-04-26 18:44 | 53.93223 | -2.80824 | 31192 ft | 480 kts | 154° |
| 2026-04-26 18:44 | 53.90363 | -2.78072 | 30526 ft | 476 kts | 154° |
| 2026-04-26 18:44 | 53.87495 | -2.75314 | 29807 ft | 472 kts | 154° |
| 2026-04-26 18:45 | 53.84650 | -2.72582 | 29112 ft | 467 kts | 154° |
| 2026-04-26 18:45 | 53.81844 | -2.69890 | 28423 ft | 462 kts | 154° |
| 2026-04-26 18:45 | 53.79051 | -2.67216 | 27737 ft | 458 kts | 154° |
| 2026-04-26 18:45 | 53.76287 | -2.64573 | 27061 ft | 454 kts | 154° |
| 2026-04-26 18:46 | 53.73581 | -2.61990 | 26419 ft | 449 kts | 154° |
| 2026-04-26 18:46 | 53.70873 | -2.59409 | 25729 ft | 446 kts | 154° |
| 2026-04-26 18:46 | 53.68169 | -2.56837 | 25005 ft | 445 kts | 154° |
| 2026-04-26 18:46 | 53.65482 | -2.54283 | 24399 ft | 440 kts | 153° |
| 2026-04-26 18:47 | 53.62811 | -2.51749 | 23785 ft | 437 kts | 153° |
| 2026-04-26 18:47 | 53.60175 | -2.49251 | 23112 ft | 432 kts | 153° |
| 2026-04-26 18:47 | 53.57565 | -2.46781 | 22453 ft | 427 kts | 153° |
| 2026-04-26 18:47 | 53.54983 | -2.44340 | 21812 ft | 422 kts | 153° |
| 2026-04-26 18:48 | 53.52446 | -2.41947 | 21380 ft | 417 kts | 153° |
| 2026-04-26 18:48 | 53.49944 | -2.39590 | 21270 ft | 418 kts | 153° |
| 2026-04-26 18:48 | 53.47398 | -2.37197 | 21262 ft | 419 kts | 153° |
| 2026-04-26 18:48 | 53.44863 | -2.34815 | 21260 ft | 419 kts | 153° |
| 2026-04-26 18:49 | 53.42307 | -2.32417 | 21271 ft | 419 kts | 153° |
| 2026-04-26 18:49 | 53.39774 | -2.30043 | 21268 ft | 419 kts | 153° |
| 2026-04-26 18:49 | 53.37223 | -2.27653 | 21264 ft | 419 kts | 153° |
| 2026-04-26 18:49 | 53.34676 | -2.25271 | 21265 ft | 419 kts | 153° |
| 2026-04-26 18:50 | 53.32117 | -2.22897 | 21265 ft | 419 kts | 153° |
| 2026-04-26 18:50 | 53.29563 | -2.20539 | 21267 ft | 419 kts | 153° |
| 2026-04-26 18:50 | 53.26999 | -2.18175 | 21264 ft | 419 kts | 153° |
| 2026-04-26 18:50 | 53.24455 | -2.15830 | 21265 ft | 419 kts | 153° |
| 2026-04-26 18:51 | 53.21898 | -2.13475 | 21265 ft | 420 kts | 154° |
| 2026-04-26 18:51 | 53.19340 | -2.11123 | 21266 ft | 421 kts | 154° |
| 2026-04-26 18:51 | 53.16768 | -2.08760 | 21263 ft | 421 kts | 154° |
| 2026-04-26 18:51 | 53.14207 | -2.06410 | 21263 ft | 421 kts | 154° |
| 2026-04-26 18:52 | 53.11636 | -2.04054 | 21266 ft | 421 kts | 154° |
| 2026-04-26 18:52 | 53.09106 | -2.01739 | 21262 ft | 420 kts | 154° |
| 2026-04-26 18:52 | 53.06547 | -1.99401 | 21265 ft | 420 kts | 154° |
| 2026-04-26 18:52 | 53.03950 | -1.97108 | 21265 ft | 419 kts | 157° |
| 2026-04-26 18:53 | 53.01276 | -1.95217 | 21263 ft | 419 kts | 160° |
| 2026-04-26 18:53 | 52.98578 | -1.93367 | 21251 ft | 419 kts | 160° |
| 2026-04-26 18:53 | 52.95874 | -1.91502 | 21263 ft | 419 kts | 160° |
| 2026-04-26 18:53 | 52.93180 | -1.89641 | 21261 ft | 420 kts | 160° |
| 2026-04-26 18:54 | 52.90493 | -1.87785 | 21266 ft | 419 kts | 160° |
| 2026-04-26 18:54 | 52.87791 | -1.85922 | 21266 ft | 419 kts | 160° |
| 2026-04-26 18:54 | 52.85097 | -1.84067 | 21266 ft | 419 kts | 160° |
| 2026-04-26 18:54 | 52.82405 | -1.82215 | 21264 ft | 419 kts | 160° |
| 2026-04-26 18:55 | 52.79704 | -1.80361 | 21264 ft | 420 kts | 160° |
| 2026-04-26 18:55 | 52.77037 | -1.78532 | 21263 ft | 420 kts | 160° |
| 2026-04-26 18:55 | 52.74332 | -1.76679 | 21251 ft | 420 kts | 160° |
| 2026-04-26 18:55 | 52.71627 | -1.74831 | 21249 ft | 420 kts | 161° |
| 2026-04-26 18:56 | 52.68859 | -1.73179 | 21249 ft | 428 kts | 163° |
| 2026-04-26 18:56 | 52.66030 | -1.71538 | 21250 ft | 441 kts | 163° |
| 2026-04-26 18:56 | 52.63106 | -1.69836 | 21266 ft | 452 kts | 163° |
| 2026-04-26 18:56 | 52.60110 | -1.68089 | 21267 ft | 457 kts | 163° |
| 2026-04-26 18:57 | 52.57123 | -1.66345 | 21264 ft | 458 kts | 163° |
| 2026-04-26 18:57 | 52.56103 | -1.65750 | 21266 ft | 457 kts | 163° |
| 2026-04-26 18:57 | 52.51102 | -1.62838 | 21260 ft | 457 kts | 163° |
| 2026-04-26 18:57 | 52.48111 | -1.61102 | 21250 ft | 456 kts | 163° |
| 2026-04-26 18:58 | 52.45153 | -1.59387 | 20779 ft | 452 kts | 163° |
| 2026-04-26 18:58 | 52.42193 | -1.57723 | 20056 ft | 449 kts | 164° |
| 2026-04-26 18:58 | 52.39200 | -1.56105 | 19283 ft | 443 kts | 164° |
| 2026-04-26 18:58 | 52.36321 | -1.54561 | 18503 ft | 439 kts | 164° |
| 2026-04-26 18:59 | 52.33432 | -1.53009 | 17625 ft | 434 kts | 164° |
| 2026-04-26 18:59 | 52.30577 | -1.51469 | 16775 ft | 428 kts | 164° |
| 2026-04-26 18:59 | 52.27826 | -1.49982 | 15981 ft | 423 kts | 164° |
| 2026-04-26 18:59 | 52.24976 | -1.48442 | 15183 ft | 417 kts | 163° |
| 2026-04-26 19:00 | 52.22242 | -1.46952 | 14495 ft | 409 kts | 162° |
| 2026-04-26 19:00 | 52.19644 | -1.45134 | 13693 ft | 405 kts | 156° |
| 2026-04-26 19:00 | 52.17138 | -1.43146 | 12793 ft | 402 kts | 155° |
| 2026-04-26 19:00 | 52.14603 | -1.41144 | 11932 ft | 398 kts | 156° |
| 2026-04-26 19:01 | 52.12144 | -1.39213 | 11102 ft | 395 kts | 156° |
| 2026-04-26 19:01 | 52.09684 | -1.37292 | 10290 ft | 390 kts | 156° |
| 2026-04-26 19:01 | 52.07265 | -1.35407 | 9441 ft | 387 kts | 155° |
| 2026-04-26 19:01 | 52.04851 | -1.33530 | 8602 ft | 382 kts | 155° |
| 2026-04-26 19:02 | 52.02486 | -1.31693 | 7813 ft | 378 kts | 155° |
| 2026-04-26 19:02 | 52.00115 | -1.29853 | 7415 ft | 376 kts | 155° |
| 2026-04-26 19:02 | 51.97757 | -1.28026 | 7282 ft | 376 kts | 155° |
| 2026-04-26 19:02 | 51.96984 | -1.27427 | 7267 ft | 376 kts | 155° |
| 2026-04-26 19:03 | 51.93055 | -1.24386 | 7265 ft | 376 kts | 155° |
| 2026-04-26 19:03 | 51.90690 | -1.22558 | 7265 ft | 376 kts | 155° |
| 2026-04-26 19:03 | 51.88328 | -1.20735 | 7266 ft | 376 kts | 155° |
| 2026-04-26 19:03 | 51.85967 | -1.18915 | 7266 ft | 377 kts | 155° |
| 2026-04-26 19:04 | 51.83584 | -1.17081 | 7265 ft | 377 kts | 155° |
| 2026-04-26 19:04 | 51.81225 | -1.15267 | 7245 ft | 376 kts | 155° |
| 2026-04-26 19:04 | 51.78900 | -1.13481 | 7061 ft | 374 kts | 155° |
| 2026-04-26 19:04 | 51.76545 | -1.11675 | 6991 ft | 374 kts | 155° |
| 2026-04-26 19:05 | 51.71836 | -1.08056 | 6999 ft | 375 kts | 153° |
| 2026-04-26 19:05 | 51.69736 | -1.05604 | 7000 ft | 377 kts | 135° |
| 2026-04-26 19:05 | 51.68223 | -1.02232 | 7001 ft | 377 kts | 117° |
| 2026-04-26 19:06 | 51.67432 | -0.98223 | 7001 ft | 378 kts | 98° |
| 2026-04-26 19:06 | 51.67463 | -0.93998 | 7001 ft | 376 kts | 81° |
| 2026-04-26 19:06 | 51.68031 | -0.89867 | 6997 ft | 376 kts | 76° |
| 2026-04-26 19:06 | 51.68686 | -0.85769 | 6999 ft | 376 kts | 76° |
| 2026-04-26 19:07 | 51.69293 | -0.81736 | 7002 ft | 377 kts | 77° |
| 2026-04-26 19:07 | 51.69859 | -0.77608 | 7005 ft | 376 kts | 78° |
| 2026-04-26 19:07 | 51.70338 | -0.73522 | 7006 ft | 361 kts | 85° |
| 2026-04-26 19:07 | 51.70515 | -0.69985 | 7007 ft | 337 kts | 79° |
| 2026-04-26 19:08 | 51.70922 | -0.66404 | 7012 ft | 314 kts | 88° |
| 2026-04-26 19:08 | 51.70898 | -0.64137 | 7015 ft | 300 kts | 92° |
| 2026-04-26 19:08 | 51.70809 | -0.60881 | 7014 ft | 282 kts | 92° |
| 2026-04-26 19:08 | 51.70731 | -0.57829 | 7017 ft | 267 kts | 92° |
| 2026-04-26 19:09 | 51.70632 | -0.54004 | 7018 ft | 249 kts | 92° |
| 2026-04-26 19:09 | 51.70318 | -0.51333 | 7023 ft | 244 kts | 116° |
| 2026-04-26 19:09 | 51.69772 | -0.49980 | 7024 ft | 244 kts | 134° |
| 2026-04-26 19:09 | 51.68389 | -0.48503 | 7026 ft | 243 kts | 163° |
| 2026-04-26 19:10 | 51.66721 | -0.48320 | 7028 ft | 242 kts | 193° |
| 2026-04-26 19:10 | 51.65231 | -0.49496 | 7017 ft | 240 kts | 223° |
| 2026-04-26 19:10 | 51.64315 | -0.51720 | 7029 ft | 242 kts | 249° |
| 2026-04-26 19:10 | 51.63764 | -0.54295 | 7022 ft | 242 kts | 251° |
| 2026-04-26 19:11 | 51.63216 | -0.56852 | 7021 ft | 241 kts | 251° |
| 2026-04-26 19:11 | 51.62666 | -0.59405 | 7023 ft | 241 kts | 250° |
| 2026-04-26 19:11 | 51.62108 | -0.61951 | 7022 ft | 241 kts | 251° |
| 2026-04-26 19:11 | 51.61567 | -0.64469 | 6948 ft | 239 kts | 251° |
| 2026-04-26 19:12 | 51.61015 | -0.67033 | 6719 ft | 241 kts | 251° |
| 2026-04-26 19:12 | 51.60480 | -0.69523 | 6430 ft | 239 kts | 251° |
| 2026-04-26 19:12 | 51.59938 | -0.72037 | 6092 ft | 239 kts | 251° |
| 2026-04-26 19:12 | 51.59391 | -0.74565 | 5769 ft | 238 kts | 251° |
| 2026-04-26 19:13 | 51.58847 | -0.77066 | 5460 ft | 236 kts | 251° |
| 2026-04-26 19:13 | 51.58305 | -0.79550 | 5143 ft | 235 kts | 251° |
| 2026-04-26 19:13 | 51.57761 | -0.82028 | 4925 ft | 229 kts | 251° |
| 2026-04-26 19:13 | 51.57247 | -0.84360 | 4809 ft | 212 kts | 250° |
| 2026-04-26 19:14 | 51.56785 | -0.86459 | 4569 ft | 190 kts | 251° |
| 2026-04-26 19:14 | 51.56345 | -0.88448 | 4083 ft | 187 kts | 250° |
| 2026-04-26 19:14 | 51.55910 | -0.90427 | 3977 ft | 189 kts | 250° |
| 2026-04-26 19:14 | 51.55621 | -0.91749 | 3978 ft | 190 kts | 250° |
| 2026-04-26 19:15 | 51.54971 | -0.94377 | 3956 ft | 191 kts | 235° |
| 2026-04-26 19:15 | 51.53935 | -0.95657 | 3975 ft | 192 kts | 198° |
| 2026-04-26 19:15 | 51.52632 | -0.95657 | 3973 ft | 190 kts | 160° |
| 2026-04-26 19:15 | 51.51609 | -0.94385 | 3974 ft | 189 kts | 124° |
| 2026-04-26 19:16 | 51.50931 | -0.92569 | 3978 ft | 190 kts | 120° |
| 2026-04-26 19:16 | 51.50252 | -0.90756 | 3982 ft | 189 kts | 121° |
| 2026-04-26 19:16 | 51.49577 | -0.88952 | 3989 ft | 188 kts | 120° |
| 2026-04-26 19:16 | 51.48900 | -0.87148 | 3982 ft | 189 kts | 119° |
| 2026-04-26 19:17 | 51.48527 | -0.85164 | 3997 ft | 188 kts | 96° |
| 2026-04-26 19:17 | 51.48426 | -0.83070 | 3987 ft | 189 kts | 94° |
| 2026-04-26 19:17 | 51.48334 | -0.80992 | 3987 ft | 184 kts | 94° |
| 2026-04-26 19:17 | 51.48095 | -0.78985 | 3989 ft | 184 kts | 98° |
| 2026-04-26 19:18 | 51.48138 | -0.76962 | 3867 ft | 179 kts | 92° |
| 2026-04-26 19:18 | 51.47890 | -0.75037 | 3572 ft | 172 kts | 104° |
| 2026-04-26 19:18 | 51.47670 | -0.73224 | 3193 ft | 164 kts | 98° |
| 2026-04-26 19:18 | 51.47489 | -0.71432 | 3002 ft | 162 kts | 98° |
| 2026-04-26 19:19 | 51.47525 | -0.69720 | 2992 ft | 163 kts | 83° |
| 2026-04-26 19:19 | 51.47653 | -0.67926 | 2942 ft | 160 kts | 88° |
| 2026-04-26 19:19 | 51.47667 | -0.66149 | 2612 ft | 158 kts | 90° |
| 2026-04-26 19:19 | 51.47677 | -0.64409 | 2214 ft | 155 kts | 90° |
| 2026-04-26 19:20 | 51.47687 | -0.62698 | 1628 ft | 154 kts | 90° |
| 2026-04-26 19:20 | 51.47693 | -0.61558 | 1288 ft | 153 kts | 90° |
| 2026-04-26 19:20 | 51.47703 | -0.59364 | 1009 ft | 143 kts | 90° |
| 2026-04-26 19:20 | 51.47710 | -0.57794 | 1011 ft | 141 kts | 90° |
| 2026-04-26 19:21 | 51.47717 | -0.56264 | 988 ft | 141 kts | 89° |
| 2026-04-26 19:21 | 51.47721 | -0.54681 | 813 ft | 142 kts | 90° |
| 2026-04-26 19:21 | 51.47730 | -0.53125 | 698 ft | 138 kts | 89° |
| 2026-04-26 19:21 | 51.47745 | -0.51556 | 518 ft | 142 kts | 89° |
| 2026-04-26 19:22 | 51.47749 | -0.50540 | 370 ft | 140 kts | 89° |
| 2026-04-26 19:22 | 51.47751 | -0.49386 | 232 ft | 140 kts | 89° |
| 2026-04-26 19:22 | 51.47757 | -0.47971 | 96 ft | 118 kts | 90° |
| 2026-04-26 19:22 | 51.47756 | -0.46983 | 96 ft | 62 kts | 90° |
| 2026-04-26 19:23 | 51.47757 | -0.46604 | 97 ft | 26 kts | 89° |
| 2026-04-26 19:23 | 51.47759 | -0.46377 | 96 ft | 25 kts | 89° |
| 2026-04-26 19:23 | 51.47712 | -0.46158 | 94 ft | 20 kts | 140° |
| 2026-04-26 19:23 | 51.47664 | -0.46099 | 95 ft | 0 kts | 146° |
| 2026-04-26 19:24 | 51.47654 | -0.46088 | 95 ft | 0 kts | 146° |
| 2026-04-26 19:25 | 51.47653 | -0.46087 | 95 ft | 2 kts | 146° |
| 2026-04-26 19:26 | 51.47618 | -0.46057 | 95 ft | 2 kts | 174° |
| 2026-04-26 19:26 | 51.47566 | -0.46061 | 94 ft | 10 kts | 188° |
| 2026-04-26 19:26 | 51.47546 | -0.46069 | 93 ft | 5 kts | 208° |
| 2026-04-26 19:26 | 51.47523 | -0.46124 | 95 ft | 8 kts | 253° |
| 2026-04-26 19:27 | 51.47517 | -0.46243 | 91 ft | 14 kts | 268° |
| 2026-04-26 19:27 | 51.47514 | -0.46424 | 94 ft | 18 kts | 270° |
| 2026-04-26 19:27 | 51.47516 | -0.46642 | 94 ft | 18 kts | 269° |
| 2026-04-26 19:27 | 51.47492 | -0.46822 | 93 ft | 16 kts | 273° |
| 2026-04-26 19:28 | 51.47493 | -0.47028 | 94 ft | 20 kts | 269° |
| 2026-04-26 19:28 | 51.47492 | -0.47234 | 91 ft | 5 kts | 270° |
| 2026-04-26 19:28 | 51.47484 | -0.47314 | 94 ft | 8 kts | 230° |
| 2026-04-26 19:28 | 51.47433 | -0.47362 | 92 ft | 9 kts | 179° |
| 2026-04-26 19:29 | 51.47362 | -0.47356 | 91 ft | 12 kts | 176° |
| 2026-04-26 19:29 | 51.47290 | -0.47353 | 92 ft | 0 kts | 179° |
| 2026-04-26 19:29 | 51.47270 | -0.47353 | 94 ft | 0 kts | 179° |
| 2026-04-26 19:32 | 51.47235 | -0.47359 | 94 ft | 7 kts | 212° |
| 2026-04-26 19:32 | 51.47221 | -0.47411 | 95 ft | 7 kts | 268° |
| 2026-04-26 19:33 | 51.47223 | -0.47480 | 94 ft | 7 kts | 271° |
| 2026-04-26 19:33 | 51.47223 | -0.47486 | 94 ft | 0 kts | 272° |